PWSweather.com
Personal Weather Stations
Station Observations
EI4HQ
Cork Harbour, CobhIE

Cork HarbourCobhIE

Lat: 51.85, Lon: -8.29

Elevation: 252

Station Type: Davis Vantage Pro2

http://www.corkharbourweather.ie

High Low Average
Temperature 50.9°F10.5°C 42.8°F6.0°C 47.4°F8.6°C
Dew Point 48.0°F8.9°C 41.5°F5.3°C 45.7°F7.6°C
Winds 36.0 mph 57.9 kmh 4.0 mph 6.4 kmh 12.0 mph S19.3 kmh S
Wind Gusts 54.0 mph86.9 kmh 5.0 mph8.0 kmh 19.0 mph30.6 kmh
Humidity 100% 84% 94%
Pressure 29.93 in1013.5 mb 29.64 in1003.7 mb -
Precipitation 0.14 in3.6 mm - -
Hour Temp Dew Point Humidity Winds Wind Gusts Pressure Precip Precip Rate Daily Precip Total
12:00 AM 48.7°F9.3°C 47.7°F8.7°C 96% 35.0 mph SSE56.3 kmh SSE 53.0 mph85.3 kmh 29.71 in1006.1 mb 0.04 in1.0 mm 0.00 in0.0 mm 0.04 in1.0 mm
12:03 AM 48.7°F9.3°C 47.7°F8.7°C 96% 36.0 mph SSE57.9 kmh SSE 53.0 mph85.3 kmh 29.71 in1006.1 mb 0.03 in0.8 mm 0.00 in0.0 mm 0.04 in1.0 mm
12:06 AM 48.7°F9.3°C 47.7°F8.7°C 96% 35.0 mph SSE56.3 kmh SSE 50.0 mph80.5 kmh 29.71 in1006.1 mb 0.03 in0.8 mm 0.00 in0.0 mm 0.04 in1.0 mm
12:09 AM 48.7°F9.3°C 47.7°F8.7°C 96% 35.0 mph SSE56.3 kmh SSE 48.0 mph77.2 kmh 29.71 in1006.1 mb 0.04 in1.0 mm 0.20 in5.1 mm 0.01 in0.3 mm
12:12 AM 48.7°F9.3°C 47.7°F8.7°C 96% 35.0 mph SSE56.3 kmh SSE 49.0 mph78.9 kmh 29.71 in1006.1 mb 0.04 in1.0 mm 0.00 in0.0 mm 0.01 in0.3 mm
12:15 AM 48.7°F9.3°C 47.7°F8.7°C 96% 36.0 mph SSE57.9 kmh SSE 51.0 mph82.1 kmh 29.70 in1005.8 mb 0.05 in1.3 mm 0.20 in5.1 mm 0.02 in0.5 mm
12:18 AM 48.7°F9.3°C 47.7°F8.7°C 96% 35.0 mph SSE56.3 kmh SSE 51.0 mph82.1 kmh 29.71 in1006.1 mb 0.05 in1.3 mm 0.00 in0.0 mm 0.02 in0.5 mm
12:21 AM 48.7°F9.3°C 47.7°F8.7°C 96% 34.0 mph SSE54.7 kmh SSE 51.0 mph82.1 kmh 29.70 in1005.8 mb 0.04 in1.0 mm 0.00 in0.0 mm 0.02 in0.5 mm
12:24 AM 48.7°F9.3°C 47.7°F8.7°C 96% 33.0 mph SSE53.1 kmh SSE 51.0 mph82.1 kmh 29.70 in1005.8 mb 0.05 in1.3 mm 0.20 in5.1 mm 0.02 in0.5 mm
12:27 AM 48.6°F9.2°C 47.5°F8.6°C 96% 32.0 mph SSE51.5 kmh SSE 47.0 mph75.6 kmh 29.70 in1005.8 mb 0.04 in1.0 mm 0.00 in0.0 mm 0.02 in0.5 mm
12:30 AM 48.7°F9.3°C 47.7°F8.7°C 96% 33.0 mph SSE53.1 kmh SSE 47.0 mph75.6 kmh 29.70 in1005.8 mb 0.04 in1.0 mm 0.00 in0.0 mm 0.02 in0.5 mm
12:33 AM 48.6°F9.2°C 47.5°F8.6°C 96% 33.0 mph SSE53.1 kmh SSE 54.0 mph86.9 kmh 29.70 in1005.8 mb 0.05 in1.3 mm 0.20 in5.1 mm 0.03 in0.8 mm
12:36 AM 48.7°F9.3°C 47.7°F8.7°C 96% 34.0 mph SSE54.7 kmh SSE 54.0 mph86.9 kmh 29.70 in1005.8 mb 0.05 in1.3 mm 0.00 in0.0 mm 0.03 in0.8 mm
12:39 AM 48.6°F9.2°C 47.5°F8.6°C 96% 34.0 mph SSE54.7 kmh SSE 54.0 mph86.9 kmh 29.70 in1005.8 mb 0.05 in1.3 mm 0.00 in0.0 mm 0.03 in0.8 mm
12:42 AM 48.6°F9.2°C 47.5°F8.6°C 96% 34.0 mph SSE54.7 kmh SSE 54.0 mph86.9 kmh 29.70 in1005.8 mb 0.05 in1.3 mm 0.00 in0.0 mm 0.03 in0.8 mm
12:45 AM 48.6°F9.2°C 47.5°F8.6°C 96% 34.0 mph SSE54.7 kmh SSE 49.0 mph78.9 kmh 29.70 in1005.8 mb 0.04 in1.0 mm 0.00 in0.0 mm 0.03 in0.8 mm
12:48 AM 48.6°F9.2°C 47.5°F8.6°C 96% 34.0 mph SSE54.7 kmh SSE 48.0 mph77.2 kmh 29.70 in1005.8 mb 0.04 in1.0 mm 0.00 in0.0 mm 0.03 in0.8 mm
12:51 AM 48.6°F9.2°C 47.5°F8.6°C 96% 34.0 mph SSE54.7 kmh SSE 48.0 mph77.2 kmh 29.69 in1005.4 mb 0.04 in1.0 mm 0.00 in0.0 mm 0.03 in0.8 mm
12:54 AM 48.6°F9.2°C 47.5°F8.6°C 96% 33.0 mph SSE53.1 kmh SSE 51.0 mph82.1 kmh 29.70 in1005.8 mb 0.04 in1.0 mm 0.00 in0.0 mm 0.04 in1.0 mm
12:57 AM 48.6°F9.2°C 47.5°F8.6°C 96% 34.0 mph SSE54.7 kmh SSE 51.0 mph82.1 kmh 29.69 in1005.4 mb 0.04 in1.0 mm 0.00 in0.0 mm 0.04 in1.0 mm
01:00 AM 48.6°F9.2°C 47.5°F8.6°C 96% 33.0 mph SSE53.1 kmh SSE 51.0 mph82.1 kmh 29.69 in1005.4 mb 0.05 in1.3 mm 0.01 in0.3 mm 0.05 in1.3 mm
01:03 AM 48.6°F9.2°C 47.5°F8.6°C 96% 33.0 mph SSE53.1 kmh SSE 52.0 mph83.7 kmh 29.68 in1005.1 mb 0.05 in1.3 mm 0.00 in0.0 mm 0.05 in1.3 mm
01:06 AM 48.6°F9.2°C 47.5°F8.6°C 96% 33.0 mph SSE53.1 kmh SSE 52.0 mph83.7 kmh 29.69 in1005.4 mb 0.05 in1.3 mm 0.00 in0.0 mm 0.05 in1.3 mm
01:09 AM 48.6°F9.2°C 47.5°F8.6°C 96% 34.0 mph SSE54.7 kmh SSE 52.0 mph83.7 kmh 29.68 in1005.1 mb 0.05 in1.3 mm 0.00 in0.0 mm 0.06 in1.5 mm
01:12 AM 48.6°F9.2°C 47.5°F8.6°C 96% 35.0 mph SSE56.3 kmh SSE 52.0 mph83.7 kmh 29.68 in1005.1 mb 0.05 in1.3 mm 0.00 in0.0 mm 0.06 in1.5 mm
01:15 AM 48.6°F9.2°C 47.5°F8.6°C 96% 35.0 mph SSE56.3 kmh SSE 51.0 mph82.1 kmh 29.68 in1005.1 mb 0.05 in1.3 mm 0.00 in0.0 mm 0.06 in1.5 mm
01:18 AM 48.6°F9.2°C 47.5°F8.6°C 96% 34.0 mph SSE54.7 kmh SSE 51.0 mph82.1 kmh 29.68 in1005.1 mb 0.05 in1.3 mm 0.00 in0.0 mm 0.06 in1.5 mm
01:21 AM 48.6°F9.2°C 47.5°F8.6°C 96% 32.0 mph SSE51.5 kmh SSE 51.0 mph82.1 kmh 29.68 in1005.1 mb 0.06 in1.5 mm 0.20 in5.1 mm 0.07 in1.8 mm
01:24 AM 48.6°F9.2°C 47.5°F8.6°C 96% 33.0 mph SSE53.1 kmh SSE 51.0 mph82.1 kmh 29.68 in1005.1 mb 0.06 in1.5 mm 0.00 in0.0 mm 0.08 in2.0 mm
01:27 AM 48.6°F9.2°C 47.5°F8.6°C 96% 33.0 mph SSE53.1 kmh SSE 51.0 mph82.1 kmh 29.68 in1005.1 mb 0.06 in1.5 mm 0.00 in0.0 mm 0.08 in2.0 mm
01:30 AM 48.6°F9.2°C 47.5°F8.6°C 96% 33.0 mph SSE53.1 kmh SSE 53.0 mph85.3 kmh 29.67 in1004.7 mb 0.06 in1.5 mm 0.00 in0.0 mm 0.09 in2.3 mm
01:33 AM 48.6°F9.2°C 47.5°F8.6°C 96% 32.0 mph SSE51.5 kmh SSE 53.0 mph85.3 kmh 29.68 in1005.1 mb 0.06 in1.5 mm 0.00 in0.0 mm 0.09 in2.3 mm
01:36 AM 48.6°F9.2°C 47.5°F8.6°C 96% 33.0 mph SSE53.1 kmh SSE 53.0 mph85.3 kmh 29.67 in1004.7 mb 0.06 in1.5 mm 0.00 in0.0 mm 0.09 in2.3 mm
01:39 AM 48.6°F9.2°C 47.5°F8.6°C 96% 32.0 mph SSE51.5 kmh SSE 46.0 mph74.0 kmh 29.68 in1005.1 mb 0.06 in1.5 mm 0.00 in0.0 mm 0.09 in2.3 mm
01:42 AM 48.6°F9.2°C 47.5°F8.6°C 96% 33.0 mph SSE53.1 kmh SSE 46.0 mph74.0 kmh 29.67 in1004.7 mb 0.06 in1.5 mm 0.00 in0.0 mm 0.09 in2.3 mm
01:45 AM 48.6°F9.2°C 47.5°F8.6°C 96% 33.0 mph SSE53.1 kmh SSE 49.0 mph78.9 kmh 29.67 in1004.7 mb 0.06 in1.5 mm 0.00 in0.0 mm 0.09 in2.3 mm
01:48 AM 48.6°F9.2°C 47.5°F8.6°C 96% 32.0 mph SSE51.5 kmh SSE 49.0 mph78.9 kmh 29.67 in1004.7 mb 0.06 in1.5 mm 0.00 in0.0 mm 0.09 in2.3 mm
01:51 AM 48.6°F9.2°C 47.5°F8.6°C 96% 32.0 mph SSE51.5 kmh SSE 49.0 mph78.9 kmh 29.67 in1004.7 mb 0.06 in1.5 mm 0.00 in0.0 mm 0.09 in2.3 mm
01:54 AM 48.6°F9.2°C 47.5°F8.6°C 96% 32.0 mph SSE51.5 kmh SSE 45.0 mph72.4 kmh 29.66 in1004.4 mb 0.06 in1.5 mm 0.00 in0.0 mm 0.09 in2.3 mm
01:57 AM 48.6°F9.2°C 47.5°F8.6°C 96% 32.0 mph SSE51.5 kmh SSE 45.0 mph72.4 kmh 29.67 in1004.7 mb 0.06 in1.5 mm 0.00 in0.0 mm 0.10 in2.5 mm
02:00 AM 48.6°F9.2°C 47.5°F8.6°C 96% 32.0 mph SSE51.5 kmh SSE 45.0 mph72.4 kmh 29.66 in1004.4 mb 0.06 in1.5 mm 0.00 in0.0 mm 0.10 in2.5 mm
02:03 AM 48.6°F9.2°C 47.5°F8.6°C 96% 32.0 mph SSE51.5 kmh SSE 45.0 mph72.4 kmh 29.66 in1004.4 mb 0.06 in1.5 mm 0.00 in0.0 mm 0.10 in2.5 mm
02:06 AM 48.6°F9.2°C 47.5°F8.6°C 96% 33.0 mph SSE53.1 kmh SSE 50.0 mph80.5 kmh 29.66 in1004.4 mb 0.06 in1.5 mm 0.00 in0.0 mm 0.10 in2.5 mm
02:09 AM 48.6°F9.2°C 47.5°F8.6°C 96% 32.0 mph SSE51.5 kmh SSE 50.0 mph80.5 kmh 29.65 in1004.1 mb 0.05 in1.3 mm 0.00 in0.0 mm 0.11 in2.8 mm
02:12 AM 48.6°F9.2°C 47.5°F8.6°C 96% 32.0 mph SSE51.5 kmh SSE 50.0 mph80.5 kmh 29.66 in1004.4 mb 0.05 in1.3 mm 0.00 in0.0 mm 0.11 in2.8 mm
02:15 AM 48.6°F9.2°C 47.5°F8.6°C 96% 31.0 mph SSE49.9 kmh SSE 50.0 mph80.5 kmh 29.66 in1004.4 mb 0.05 in1.3 mm 0.00 in0.0 mm 0.11 in2.8 mm
02:18 AM 48.6°F9.2°C 47.5°F8.6°C 96% 30.0 mph SSE48.3 kmh SSE 46.0 mph74.0 kmh 29.65 in1004.1 mb 0.05 in1.3 mm 0.00 in0.0 mm 0.11 in2.8 mm
02:21 AM 48.6°F9.2°C 47.5°F8.6°C 96% 30.0 mph SSE48.3 kmh SSE 46.0 mph74.0 kmh 29.66 in1004.4 mb 0.04 in1.0 mm 0.00 in0.0 mm 0.11 in2.8 mm
02:24 AM 48.6°F9.2°C 47.7°F8.7°C 97% 30.0 mph SSE48.3 kmh SSE 46.0 mph74.0 kmh 29.65 in1004.1 mb 0.03 in0.8 mm 0.00 in0.0 mm 0.11 in2.8 mm
02:27 AM 48.6°F9.2°C 47.7°F8.7°C 97% 31.0 mph SSE49.9 kmh SSE 49.0 mph78.9 kmh 29.65 in1004.1 mb 0.03 in0.8 mm 0.00 in0.0 mm 0.11 in2.8 mm
02:30 AM 48.6°F9.2°C 47.7°F8.7°C 97% 32.0 mph SSE51.5 kmh SSE 49.0 mph78.9 kmh 29.65 in1004.1 mb 0.03 in0.8 mm 0.00 in0.0 mm 0.12 in3.0 mm
02:33 AM 48.6°F9.2°C 47.7°F8.7°C 97% 32.0 mph SSE51.5 kmh SSE 49.0 mph78.9 kmh 29.65 in1004.1 mb 0.02 in0.5 mm 0.00 in0.0 mm 0.12 in3.0 mm
02:36 AM 48.6°F9.2°C 47.7°F8.7°C 97% 33.0 mph SSE53.1 kmh SSE 49.0 mph78.9 kmh 29.65 in1004.1 mb 0.02 in0.5 mm 0.00 in0.0 mm 0.12 in3.0 mm
02:39 AM 48.6°F9.2°C 47.7°F8.7°C 97% 33.0 mph SSE53.1 kmh SSE 50.0 mph80.5 kmh 29.65 in1004.1 mb 0.03 in0.8 mm 0.20 in5.1 mm 0.13 in3.3 mm
02:42 AM 48.6°F9.2°C 47.7°F8.7°C 97% 34.0 mph SSE54.7 kmh SSE 52.0 mph83.7 kmh 29.65 in1004.1 mb 0.03 in0.8 mm 0.00 in0.0 mm 0.13 in3.3 mm
02:45 AM 48.6°F9.2°C 47.7°F8.7°C 97% 34.0 mph SSE54.7 kmh SSE 52.0 mph83.7 kmh 29.64 in1003.7 mb 0.03 in0.8 mm 0.00 in0.0 mm 0.13 in3.3 mm
02:48 AM 48.6°F9.2°C 47.7°F8.7°C 97% 35.0 mph SSE56.3 kmh SSE 52.0 mph83.7 kmh 29.64 in1003.7 mb 0.03 in0.8 mm 0.00 in0.0 mm 0.13 in3.3 mm
02:51 AM 48.6°F9.2°C 47.7°F8.7°C 97% 34.0 mph SSE54.7 kmh SSE 51.0 mph82.1 kmh 29.64 in1003.7 mb 0.03 in0.8 mm 0.00 in0.0 mm 0.13 in3.3 mm
02:54 AM 48.6°F9.2°C 47.8°F8.8°C 97% 33.0 mph SSE53.1 kmh SSE 51.0 mph82.1 kmh 29.64 in1003.7 mb 0.03 in0.8 mm 0.00 in0.0 mm 0.13 in3.3 mm
02:57 AM 48.6°F9.2°C 47.7°F8.7°C 97% 32.0 mph SSE51.5 kmh SSE 49.0 mph78.9 kmh 29.64 in1003.7 mb 0.02 in0.5 mm 0.00 in0.0 mm 0.13 in3.3 mm
03:00 AM 48.6°F9.2°C 47.7°F8.7°C 97% 33.0 mph SSE53.1 kmh SSE 49.0 mph78.9 kmh 29.64 in1003.7 mb 0.02 in0.5 mm 0.00 in0.0 mm 0.13 in3.3 mm
03:03 AM 48.6°F9.2°C 47.8°F8.8°C 97% 33.0 mph SSE53.1 kmh SSE 49.0 mph78.9 kmh 29.64 in1003.7 mb 0.02 in0.5 mm 0.00 in0.0 mm 0.13 in3.3 mm
03:06 AM 48.6°F9.2°C 47.8°F8.8°C 97% 34.0 mph SSE54.7 kmh SSE 49.0 mph78.9 kmh 29.64 in1003.7 mb 0.02 in0.5 mm 0.00 in0.0 mm 0.13 in3.3 mm
03:09 AM 48.6°F9.2°C 47.8°F8.8°C 97% 34.0 mph SSE54.7 kmh SSE 49.0 mph78.9 kmh 29.64 in1003.7 mb 0.02 in0.5 mm 0.00 in0.0 mm 0.13 in3.3 mm
03:12 AM 48.6°F9.2°C 47.8°F8.8°C 97% 34.0 mph SSE54.7 kmh SSE 48.0 mph77.2 kmh 29.64 in1003.7 mb 0.02 in0.5 mm 0.00 in0.0 mm 0.13 in3.3 mm
03:15 AM 48.6°F9.2°C 47.7°F8.7°C 97% 33.0 mph SSE53.1 kmh SSE 48.0 mph77.2 kmh 29.64 in1003.7 mb 0.02 in0.5 mm 0.00 in0.0 mm 0.13 in3.3 mm
03:18 AM 48.6°F9.2°C 47.7°F8.7°C 97% 32.0 mph SSE51.5 kmh SSE 48.0 mph77.2 kmh 29.65 in1004.1 mb 0.02 in0.5 mm 0.00 in0.0 mm 0.13 in3.3 mm
03:21 AM 48.6°F9.2°C 47.7°F8.7°C 97% 29.0 mph SSE46.7 kmh SSE 44.0 mph70.8 kmh 29.65 in1004.1 mb 0.02 in0.5 mm 0.00 in0.0 mm 0.13 in3.3 mm
03:24 AM 48.6°F9.2°C 47.7°F8.7°C 97% 26.0 mph SSE41.8 kmh SSE 40.0 mph64.4 kmh 29.66 in1004.4 mb 0.02 in0.5 mm 0.00 in0.0 mm 0.13 in3.3 mm
03:27 AM 48.4°F9.1°C 47.7°F8.7°C 97% 22.0 mph S35.4 kmh S 40.0 mph64.4 kmh 29.66 in1004.4 mb 0.02 in0.5 mm 0.00 in0.0 mm 0.13 in3.3 mm
03:30 AM 48.4°F9.1°C 47.5°F8.6°C 97% 17.0 mph S27.4 kmh S 33.0 mph53.1 kmh 29.66 in1004.4 mb 0.02 in0.5 mm 0.00 in0.0 mm 0.13 in3.3 mm
03:33 AM 48.4°F9.1°C 47.5°F8.6°C 97% 15.0 mph S24.1 kmh S 28.0 mph45.1 kmh 29.66 in1004.4 mb 0.02 in0.5 mm 0.00 in0.0 mm 0.13 in3.3 mm
03:36 AM 48.2°F9.0°C 47.3°F8.5°C 97% 13.0 mph S20.9 kmh S 23.0 mph37.0 kmh 29.66 in1004.4 mb 0.02 in0.5 mm 0.00 in0.0 mm 0.13 in3.3 mm
03:39 AM 48.2°F9.0°C 47.3°F8.5°C 97% 12.0 mph S19.3 kmh S 17.0 mph27.4 kmh 29.66 in1004.4 mb 0.01 in0.3 mm 0.00 in0.0 mm 0.13 in3.3 mm
03:42 AM 48.0°F8.9°C 47.3°F8.5°C 97% 12.0 mph S19.3 kmh S 19.0 mph30.6 kmh 29.67 in1004.7 mb 0.01 in0.3 mm 0.00 in0.0 mm 0.13 in3.3 mm
03:45 AM 48.0°F8.9°C 47.3°F8.5°C 97% 12.0 mph S19.3 kmh S 20.0 mph32.2 kmh 29.67 in1004.7 mb 0.01 in0.3 mm 0.00 in0.0 mm 0.13 in3.3 mm
03:48 AM 48.0°F8.9°C 47.3°F8.5°C 97% 12.0 mph S19.3 kmh S 20.0 mph32.2 kmh 29.67 in1004.7 mb 0.01 in0.3 mm 0.00 in0.0 mm 0.13 in3.3 mm
03:51 AM 48.0°F8.9°C 46.9°F8.3°C 96% 13.0 mph S20.9 kmh S 20.0 mph32.2 kmh 29.67 in1004.7 mb 0.01 in0.3 mm 0.00 in0.0 mm 0.13 in3.3 mm
03:54 AM 48.0°F8.9°C 46.9°F8.3°C 96% 13.0 mph S20.9 kmh S 20.0 mph32.2 kmh 29.67 in1004.7 mb 0.01 in0.3 mm 0.00 in0.0 mm 0.13 in3.3 mm
03:57 AM 47.8°F8.8°C 46.8°F8.2°C 96% 13.0 mph S20.9 kmh S 21.0 mph33.8 kmh 29.67 in1004.7 mb 0.01 in0.3 mm 0.00 in0.0 mm 0.13 in3.3 mm
04:00 AM 47.8°F8.8°C 46.8°F8.2°C 96% 13.0 mph S20.9 kmh S 21.0 mph33.8 kmh 29.67 in1004.7 mb 0.01 in0.3 mm 0.00 in0.0 mm 0.13 in3.3 mm
04:03 AM 47.8°F8.8°C 46.9°F8.3°C 97% 13.0 mph SSE20.9 kmh SSE 21.0 mph33.8 kmh 29.67 in1004.7 mb 0.01 in0.3 mm 0.00 in0.0 mm 0.13 in3.3 mm
04:06 AM 47.7°F8.7°C 46.9°F8.3°C 97% 12.0 mph SSE19.3 kmh SSE 19.0 mph30.6 kmh 29.67 in1004.7 mb 0.01 in0.3 mm 0.00 in0.0 mm 0.13 in3.3 mm
04:09 AM 47.5°F8.6°C 46.4°F8.0°C 96% 12.0 mph SSE19.3 kmh SSE 18.0 mph29.0 kmh 29.67 in1004.7 mb 0.00 in0.0 mm 0.00 in0.0 mm 0.13 in3.3 mm
04:12 AM 47.5°F8.6°C 46.4°F8.0°C 96% 12.0 mph SSE19.3 kmh SSE 18.0 mph29.0 kmh 29.67 in1004.7 mb 0.00 in0.0 mm 0.00 in0.0 mm 0.13 in3.3 mm
04:15 AM 47.3°F8.5°C 46.2°F7.9°C 96% 12.0 mph SSE19.3 kmh SSE 17.0 mph27.4 kmh 29.67 in1004.7 mb 0.00 in0.0 mm 0.00 in0.0 mm 0.13 in3.3 mm
04:18 AM 47.3°F8.5°C 46.2°F7.9°C 96% 12.0 mph SSE19.3 kmh SSE 17.0 mph27.4 kmh 29.67 in1004.7 mb 0.00 in0.0 mm 0.00 in0.0 mm 0.13 in3.3 mm
04:21 AM 47.3°F8.5°C 46.2°F7.9°C 96% 11.0 mph S17.7 kmh S 20.0 mph32.2 kmh 29.67 in1004.7 mb 0.00 in0.0 mm 0.00 in0.0 mm 0.13 in3.3 mm
04:24 AM 47.1°F8.4°C 46.0°F7.8°C 96% 11.0 mph S17.7 kmh S 20.0 mph32.2 kmh 29.67 in1004.7 mb 0.00 in0.0 mm 0.00 in0.0 mm 0.13 in3.3 mm
04:27 AM 47.1°F8.4°C 46.0°F7.8°C 96% 11.0 mph S17.7 kmh S 20.0 mph32.2 kmh 29.67 in1004.7 mb 0.00 in0.0 mm 0.00 in0.0 mm 0.13 in3.3 mm
04:30 AM 47.1°F8.4°C 46.0°F7.8°C 96% 11.0 mph S17.7 kmh S 17.0 mph27.4 kmh 29.67 in1004.7 mb 0.00 in0.0 mm 0.00 in0.0 mm 0.13 in3.3 mm
04:33 AM 47.1°F8.4°C 46.0°F7.8°C 96% 11.0 mph S17.7 kmh S 17.0 mph27.4 kmh 29.67 in1004.7 mb 0.00 in0.0 mm 0.00 in0.0 mm 0.13 in3.3 mm
04:36 AM 47.1°F8.4°C 46.2°F7.9°C 97% 11.0 mph SSE17.7 kmh SSE 17.0 mph27.4 kmh 29.67 in1004.7 mb 0.00 in0.0 mm 0.00 in0.0 mm 0.13 in3.3 mm
04:39 AM 47.1°F8.4°C 46.2°F7.9°C 97% 11.0 mph SSE17.7 kmh SSE 17.0 mph27.4 kmh 29.67 in1004.7 mb 0.00 in0.0 mm 0.00 in0.0 mm 0.13 in3.3 mm
04:42 AM 47.1°F8.4°C 46.2°F7.9°C 97% 11.0 mph SSE17.7 kmh SSE 16.0 mph25.7 kmh 29.67 in1004.7 mb 0.00 in0.0 mm 0.00 in0.0 mm 0.13 in3.3 mm
04:45 AM 47.1°F8.4°C 46.2°F7.9°C 97% 11.0 mph SSE17.7 kmh SSE 16.0 mph25.7 kmh 29.68 in1005.1 mb 0.00 in0.0 mm 0.00 in0.0 mm 0.13 in3.3 mm
04:48 AM 47.1°F8.4°C 46.2°F7.9°C 97% 11.0 mph SSE17.7 kmh SSE 15.0 mph24.1 kmh 29.68 in1005.1 mb 0.00 in0.0 mm 0.00 in0.0 mm 0.13 in3.3 mm
04:51 AM 47.1°F8.4°C 46.2°F7.9°C 97% 11.0 mph SSE17.7 kmh SSE 15.0 mph24.1 kmh 29.67 in1004.7 mb 0.01 in0.3 mm 0.20 in5.1 mm 0.14 in3.6 mm
04:54 AM 47.1°F8.4°C 46.2°F7.9°C 97% 11.0 mph SSE17.7 kmh SSE 17.0 mph27.4 kmh 29.67 in1004.7 mb 0.01 in0.3 mm 0.00 in0.0 mm 0.14 in3.6 mm
04:57 AM 46.9°F8.3°C 46.2°F7.9°C 97% 11.0 mph SSE17.7 kmh SSE 17.0 mph27.4 kmh 29.67 in1004.7 mb 0.01 in0.3 mm 0.00 in0.0 mm 0.14 in3.6 mm
05:00 AM 46.9°F8.3°C 46.2°F7.9°C 97% 11.0 mph SSE17.7 kmh SSE 18.0 mph29.0 kmh 29.67 in1004.7 mb 0.01 in0.3 mm 0.00 in0.0 mm 0.14 in3.6 mm
05:03 AM 46.9°F8.3°C 46.0°F7.8°C 97% 11.0 mph SSE17.7 kmh SSE 18.0 mph29.0 kmh 29.67 in1004.7 mb 0.01 in0.3 mm 0.00 in0.0 mm 0.14 in3.6 mm
05:06 AM 46.9°F8.3°C 46.0°F7.8°C 97% 11.0 mph S17.7 kmh S 18.0 mph29.0 kmh 29.67 in1004.7 mb 0.01 in0.3 mm 0.00 in0.0 mm 0.14 in3.6 mm
05:09 AM 46.9°F8.3°C 46.0°F7.8°C 97% 11.0 mph S17.7 kmh S 19.0 mph30.6 kmh 29.67 in1004.7 mb 0.01 in0.3 mm 0.00 in0.0 mm 0.14 in3.6 mm
05:12 AM 46.9°F8.3°C 46.0°F7.8°C 97% 11.0 mph S17.7 kmh S 19.0 mph30.6 kmh 29.67 in1004.7 mb 0.01 in0.3 mm 0.00 in0.0 mm 0.14 in3.6 mm
05:15 AM 46.9°F8.3°C 46.0°F7.8°C 97% 11.0 mph S17.7 kmh S 19.0 mph30.6 kmh 29.67 in1004.7 mb 0.01 in0.3 mm 0.00 in0.0 mm 0.14 in3.6 mm
05:18 AM 46.9°F8.3°C 46.2°F7.9°C 97% 11.0 mph S17.7 kmh S 19.0 mph30.6 kmh 29.67 in1004.7 mb 0.01 in0.3 mm 0.00 in0.0 mm 0.14 in3.6 mm
05:21 AM 46.9°F8.3°C 46.2°F7.9°C 97% 11.0 mph S17.7 kmh S 19.0 mph30.6 kmh 29.67 in1004.7 mb 0.01 in0.3 mm 0.00 in0.0 mm 0.14 in3.6 mm
05:24 AM 46.9°F8.3°C 46.2°F7.9°C 97% 10.0 mph S16.1 kmh S 15.0 mph24.1 kmh 29.67 in1004.7 mb 0.01 in0.3 mm 0.00 in0.0 mm 0.14 in3.6 mm
05:27 AM 47.1°F8.4°C 46.2°F7.9°C 97% 10.0 mph S16.1 kmh S 15.0 mph24.1 kmh 29.67 in1004.7 mb 0.01 in0.3 mm 0.00 in0.0 mm 0.14 in3.6 mm
05:30 AM 47.1°F8.4°C 46.2°F7.9°C 97% 10.0 mph S16.1 kmh S 15.0 mph24.1 kmh 29.67 in1004.7 mb 0.01 in0.3 mm 0.00 in0.0 mm 0.14 in3.6 mm
05:33 AM 47.1°F8.4°C 46.2°F7.9°C 97% 10.0 mph S16.1 kmh S 16.0 mph25.7 kmh 29.68 in1005.1 mb 0.01 in0.3 mm 0.00 in0.0 mm 0.14 in3.6 mm
05:36 AM 47.1°F8.4°C 46.4°F8.0°C 97% 10.0 mph S16.1 kmh S 16.0 mph25.7 kmh 29.68 in1005.1 mb 0.01 in0.3 mm 0.00 in0.0 mm 0.14 in3.6 mm
05:39 AM 47.1°F8.4°C 46.4°F8.0°C 97% 11.0 mph S17.7 kmh S 17.0 mph27.4 kmh 29.68 in1005.1 mb 0.01 in0.3 mm 0.00 in0.0 mm 0.14 in3.6 mm
05:42 AM 47.1°F8.4°C 46.4°F8.0°C 97% 11.0 mph S17.7 kmh S 17.0 mph27.4 kmh 29.68 in1005.1 mb 0.01 in0.3 mm 0.00 in0.0 mm 0.14 in3.6 mm
05:45 AM 47.1°F8.4°C 46.4°F8.0°C 97% 11.0 mph SSE17.7 kmh SSE 17.0 mph27.4 kmh 29.68 in1005.1 mb 0.01 in0.3 mm 0.00 in0.0 mm 0.14 in3.6 mm
05:48 AM 47.3°F8.5°C 46.6°F8.1°C 97% 11.0 mph S17.7 kmh S 17.0 mph27.4 kmh 29.68 in1005.1 mb 0.01 in0.3 mm 0.00 in0.0 mm 0.14 in3.6 mm
05:51 AM 47.3°F8.5°C 46.6°F8.1°C 97% 10.0 mph SSE16.1 kmh SSE 15.0 mph24.1 kmh 29.68 in1005.1 mb 0.00 in0.0 mm 0.00 in0.0 mm 0.14 in3.6 mm
05:54 AM 47.3°F8.5°C 46.6°F8.1°C 97% 10.0 mph SSE16.1 kmh SSE 15.0 mph24.1 kmh 29.68 in1005.1 mb 0.00 in0.0 mm 0.00 in0.0 mm 0.14 in3.6 mm
05:57 AM 47.3°F8.5°C 46.6°F8.1°C 97% 10.0 mph SSE16.1 kmh SSE 15.0 mph24.1 kmh 29.68 in1005.1 mb 0.00 in0.0 mm 0.00 in0.0 mm 0.14 in3.6 mm
06:00 AM 47.3°F8.5°C 46.6°F8.1°C 97% 10.0 mph SSE16.1 kmh SSE 15.0 mph24.1 kmh 29.68 in1005.1 mb 0.00 in0.0 mm 0.00 in0.0 mm 0.14 in3.6 mm
06:03 AM 47.3°F8.5°C 46.6°F8.1°C 97% 11.0 mph SSE17.7 kmh SSE 17.0 mph27.4 kmh 29.67 in1004.7 mb 0.00 in0.0 mm 0.00 in0.0 mm 0.14 in3.6 mm
06:06 AM 47.5°F8.6°C 46.6°F8.1°C 97% 11.0 mph SSE17.7 kmh SSE 17.0 mph27.4 kmh 29.67 in1004.7 mb 0.00 in0.0 mm 0.00 in0.0 mm 0.14 in3.6 mm
06:09 AM 47.5°F8.6°C 46.6°F8.1°C 97% 11.0 mph SSE17.7 kmh SSE 17.0 mph27.4 kmh 29.67 in1004.7 mb 0.00 in0.0 mm 0.00 in0.0 mm 0.14 in3.6 mm
06:12 AM 47.5°F8.6°C 46.8°F8.2°C 97% 11.0 mph SSE17.7 kmh SSE 16.0 mph25.7 kmh 29.68 in1005.1 mb 0.00 in0.0 mm 0.00 in0.0 mm 0.14 in3.6 mm
06:15 AM 47.5°F8.6°C 46.6°F8.1°C 97% 10.0 mph SSE16.1 kmh SSE 16.0 mph25.7 kmh 29.67 in1004.7 mb 0.00 in0.0 mm 0.00 in0.0 mm 0.14 in3.6 mm
06:18 AM 47.5°F8.6°C 46.6°F8.1°C 97% 10.0 mph SSE16.1 kmh SSE 15.0 mph24.1 kmh 29.67 in1004.7 mb 0.00 in0.0 mm 0.00 in0.0 mm 0.14 in3.6 mm
06:21 AM 47.5°F8.6°C 46.6°F8.1°C 97% 10.0 mph SSE16.1 kmh SSE 15.0 mph24.1 kmh 29.67 in1004.7 mb 0.00 in0.0 mm 0.00 in0.0 mm 0.14 in3.6 mm
06:24 AM 47.5°F8.6°C 46.6°F8.1°C 97% 10.0 mph SSE16.1 kmh SSE 17.0 mph27.4 kmh 29.68 in1005.1 mb 0.00 in0.0 mm 0.00 in0.0 mm 0.14 in3.6 mm
06:27 AM 47.5°F8.6°C 46.6°F8.1°C 97% 10.0 mph SSE16.1 kmh SSE 17.0 mph27.4 kmh 29.68 in1005.1 mb 0.00 in0.0 mm 0.00 in0.0 mm 0.14 in3.6 mm
06:30 AM 47.5°F8.6°C 46.8°F8.2°C 97% 11.0 mph SSE17.7 kmh SSE 17.0 mph27.4 kmh 29.68 in1005.1 mb 0.00 in0.0 mm 0.00 in0.0 mm 0.14 in3.6 mm
06:33 AM 47.5°F8.6°C 46.8°F8.2°C 97% 11.0 mph SSE17.7 kmh SSE 17.0 mph27.4 kmh 29.68 in1005.1 mb 0.00 in0.0 mm 0.00 in0.0 mm 0.14 in3.6 mm
06:36 AM 47.5°F8.6°C 46.8°F8.2°C 97% 11.0 mph S17.7 kmh S 17.0 mph27.4 kmh 29.68 in1005.1 mb 0.00 in0.0 mm 0.00 in0.0 mm 0.14 in3.6 mm
06:39 AM 47.5°F8.6°C 46.8°F8.2°C 97% 10.0 mph S16.1 kmh S 17.0 mph27.4 kmh 29.68 in1005.1 mb 0.00 in0.0 mm 0.00 in0.0 mm 0.14 in3.6 mm
06:42 AM 47.5°F8.6°C 46.8°F8.2°C 97% 10.0 mph S16.1 kmh S 16.0 mph25.7 kmh 29.68 in1005.1 mb 0.00 in0.0 mm 0.00 in0.0 mm 0.14 in3.6 mm
06:45 AM 47.7°F8.7°C 46.8°F8.2°C 97% 10.0 mph S16.1 kmh S 16.0 mph25.7 kmh 29.68 in1005.1 mb 0.00 in0.0 mm 0.00 in0.0 mm 0.14 in3.6 mm
06:48 AM 47.7°F8.7°C 46.8°F8.2°C 97% 11.0 mph SSE17.7 kmh SSE 16.0 mph25.7 kmh 29.68 in1005.1 mb 0.00 in0.0 mm 0.00 in0.0 mm 0.14 in3.6 mm
06:51 AM 47.7°F8.7°C 46.8°F8.2°C 97% 11.0 mph SSE17.7 kmh SSE 16.0 mph25.7 kmh 29.68 in1005.1 mb 0.00 in0.0 mm 0.00 in0.0 mm 0.14 in3.6 mm
06:54 AM 47.7°F8.7°C 46.8°F8.2°C 97% 11.0 mph SSE17.7 kmh SSE 16.0 mph25.7 kmh 29.68 in1005.1 mb 0.00 in0.0 mm 0.00 in0.0 mm 0.14 in3.6 mm
06:57 AM 47.7°F8.7°C 46.8°F8.2°C 97% 11.0 mph SSE17.7 kmh SSE 16.0 mph25.7 kmh 29.68 in1005.1 mb 0.00 in0.0 mm 0.00 in0.0 mm 0.14 in3.6 mm
07:00 AM 47.7°F8.7°C 46.8°F8.2°C 97% 11.0 mph SSE17.7 kmh SSE 16.0 mph25.7 kmh 29.68 in1005.1 mb 0.00 in0.0 mm 0.00 in0.0 mm 0.14 in3.6 mm
07:03 AM 47.7°F8.7°C 46.8°F8.2°C 97% 11.0 mph SSE17.7 kmh SSE 18.0 mph29.0 kmh 29.68 in1005.1 mb 0.00 in0.0 mm 0.00 in0.0 mm 0.14 in3.6 mm
07:06 AM 47.7°F8.7°C 46.8°F8.2°C 97% 12.0 mph SSE19.3 kmh SSE 18.0 mph29.0 kmh 29.68 in1005.1 mb 0.00 in0.0 mm 0.00 in0.0 mm 0.14 in3.6 mm
07:09 AM 47.7°F8.7°C 46.9°F8.3°C 97% 13.0 mph SSE20.9 kmh SSE 18.0 mph29.0 kmh 29.68 in1005.1 mb 0.00 in0.0 mm 0.00 in0.0 mm 0.14 in3.6 mm
07:12 AM 47.7°F8.7°C 46.9°F8.3°C 97% 13.0 mph SSE20.9 kmh SSE 18.0 mph29.0 kmh 29.68 in1005.1 mb 0.00 in0.0 mm 0.00 in0.0 mm 0.14 in3.6 mm
07:15 AM 47.8°F8.8°C 46.9°F8.3°C 97% 13.0 mph SSE20.9 kmh SSE 18.0 mph29.0 kmh 29.69 in1005.4 mb 0.00 in0.0 mm 0.00 in0.0 mm 0.14 in3.6 mm
07:18 AM 47.8°F8.8°C 46.9°F8.3°C 97% 12.0 mph SSE19.3 kmh SSE 17.0 mph27.4 kmh 29.69 in1005.4 mb 0.00 in0.0 mm 0.00 in0.0 mm 0.14 in3.6 mm
07:21 AM 47.8°F8.8°C 46.9°F8.3°C 97% 12.0 mph SSE19.3 kmh SSE 19.0 mph30.6 kmh 29.68 in1005.1 mb 0.00 in0.0 mm 0.00 in0.0 mm 0.14 in3.6 mm
07:24 AM 47.8°F8.8°C 46.9°F8.3°C 97% 13.0 mph SSE20.9 kmh SSE 20.0 mph32.2 kmh 29.69 in1005.4 mb 0.00 in0.0 mm 0.00 in0.0 mm 0.14 in3.6 mm
07:27 AM 47.8°F8.8°C 46.9°F8.3°C 97% 13.0 mph SSE20.9 kmh SSE 20.0 mph32.2 kmh 29.69 in1005.4 mb 0.00 in0.0 mm 0.00 in0.0 mm 0.14 in3.6 mm
07:30 AM 47.8°F8.8°C 47.1°F8.4°C 97% 14.0 mph SSE22.5 kmh SSE 20.0 mph32.2 kmh 29.69 in1005.4 mb 0.00 in0.0 mm 0.00 in0.0 mm 0.14 in3.6 mm
07:33 AM 47.8°F8.8°C 47.1°F8.4°C 97% 14.0 mph SSE22.5 kmh SSE 20.0 mph32.2 kmh 29.69 in1005.4 mb 0.00 in0.0 mm 0.00 in0.0 mm 0.14 in3.6 mm
07:36 AM 47.8°F8.8°C 46.9°F8.3°C 97% 13.0 mph SSE20.9 kmh SSE 20.0 mph32.2 kmh 29.69 in1005.4 mb 0.00 in0.0 mm 0.00 in0.0 mm 0.14 in3.6 mm
07:39 AM 47.8°F8.8°C 46.9°F8.3°C 97% 14.0 mph SSE22.5 kmh SSE 21.0 mph33.8 kmh 29.69 in1005.4 mb 0.00 in0.0 mm 0.00 in0.0 mm 0.14 in3.6 mm
07:42 AM 47.8°F8.8°C 46.9°F8.3°C 97% 14.0 mph SSE22.5 kmh SSE 21.0 mph33.8 kmh 29.69 in1005.4 mb 0.00 in0.0 mm 0.00 in0.0 mm 0.14 in3.6 mm
07:45 AM 47.8°F8.8°C 46.9°F8.3°C 97% 15.0 mph SSE24.1 kmh SSE 21.0 mph33.8 kmh 29.69 in1005.4 mb 0.00 in0.0 mm 0.00 in0.0 mm 0.14 in3.6 mm
07:48 AM 47.8°F8.8°C 47.1°F8.4°C 97% 15.0 mph SSE24.1 kmh SSE 21.0 mph33.8 kmh 29.69 in1005.4 mb 0.00 in0.0 mm 0.00 in0.0 mm 0.14 in3.6 mm
07:51 AM 48.0°F8.9°C 47.1°F8.4°C 97% 14.0 mph SSE22.5 kmh SSE 20.0 mph32.2 kmh 29.69 in1005.4 mb 0.00 in0.0 mm 0.00 in0.0 mm 0.14 in3.6 mm
07:54 AM 48.0°F8.9°C 47.3°F8.5°C 97% 15.0 mph SSE24.1 kmh SSE 25.0 mph40.2 kmh 29.69 in1005.4 mb 0.00 in0.0 mm 0.00 in0.0 mm 0.14 in3.6 mm
07:57 AM 48.2°F9.0°C 47.3°F8.5°C 97% 16.0 mph SSE25.7 kmh SSE 25.0 mph40.2 kmh 29.69 in1005.4 mb 0.00 in0.0 mm 0.00 in0.0 mm 0.14 in3.6 mm
08:00 AM 48.2°F9.0°C 47.3°F8.5°C 97% 16.0 mph SSE25.7 kmh SSE 25.0 mph40.2 kmh 29.69 in1005.4 mb 0.00 in0.0 mm 0.00 in0.0 mm 0.14 in3.6 mm
08:03 AM 48.0°F8.9°C 47.3°F8.5°C 97% 15.0 mph SSE24.1 kmh SSE 25.0 mph40.2 kmh 29.69 in1005.4 mb 0.00 in0.0 mm 0.00 in0.0 mm 0.14 in3.6 mm
08:06 AM 48.2°F9.0°C 47.3°F8.5°C 97% 14.0 mph SSE22.5 kmh SSE 22.0 mph35.4 kmh 29.69 in1005.4 mb 0.00 in0.0 mm 0.00 in0.0 mm 0.14 in3.6 mm
08:09 AM 48.2°F9.0°C 47.3°F8.5°C 97% 14.0 mph SSE22.5 kmh SSE 22.0 mph35.4 kmh 29.69 in1005.4 mb 0.00 in0.0 mm 0.00 in0.0 mm 0.14 in3.6 mm
08:12 AM 48.0°F8.9°C 47.3°F8.5°C 97% 15.0 mph SSE24.1 kmh SSE 22.0 mph35.4 kmh 29.70 in1005.8 mb 0.00 in0.0 mm 0.00 in0.0 mm 0.14 in3.6 mm
08:15 AM 48.0°F8.9°C 48.0°F8.9°C 100% 14.0 mph SSE22.5 kmh SSE 21.0 mph33.8 kmh 29.70 in1005.8 mb 0.00 in0.0 mm 0.00 in0.0 mm 0.14 in3.6 mm
08:18 AM 48.0°F8.9°C 47.3°F8.5°C 97% 14.0 mph S22.5 kmh S 21.0 mph33.8 kmh 29.70 in1005.8 mb 0.00 in0.0 mm 0.00 in0.0 mm 0.14 in3.6 mm
08:21 AM 48.0°F8.9°C 47.3°F8.5°C 97% 13.0 mph S20.9 kmh S 21.0 mph33.8 kmh 29.70 in1005.8 mb 0.00 in0.0 mm 0.00 in0.0 mm 0.14 in3.6 mm
08:24 AM 48.0°F8.9°C 47.3°F8.5°C 97% 13.0 mph S20.9 kmh S 20.0 mph32.2 kmh 29.70 in1005.8 mb 0.00 in0.0 mm 0.00 in0.0 mm 0.14 in3.6 mm
08:27 AM 48.0°F8.9°C 47.3°F8.5°C 97% 12.0 mph S19.3 kmh S 21.0 mph33.8 kmh 29.70 in1005.8 mb 0.00 in0.0 mm 0.00 in0.0 mm 0.14 in3.6 mm
08:30 AM 48.0°F8.9°C 47.3°F8.5°C 97% 12.0 mph S19.3 kmh S 21.0 mph33.8 kmh 29.70 in1005.8 mb 0.00 in0.0 mm 0.00 in0.0 mm 0.14 in3.6 mm
08:33 AM 48.0°F8.9°C 47.3°F8.5°C 97% 11.0 mph S17.7 kmh S 21.0 mph33.8 kmh 29.70 in1005.8 mb 0.00 in0.0 mm 0.00 in0.0 mm 0.14 in3.6 mm
08:36 AM 48.0°F8.9°C 47.3°F8.5°C 97% 10.0 mph S16.1 kmh S 16.0 mph25.7 kmh 29.70 in1005.8 mb 0.00 in0.0 mm 0.00 in0.0 mm 0.14 in3.6 mm
08:39 AM 48.0°F8.9°C 47.3°F8.5°C 97% 10.0 mph S16.1 kmh S 16.0 mph25.7 kmh 29.70 in1005.8 mb 0.00 in0.0 mm 0.00 in0.0 mm 0.14 in3.6 mm
08:42 AM 48.0°F8.9°C 47.3°F8.5°C 97% 11.0 mph S17.7 kmh S 18.0 mph29.0 kmh 29.70 in1005.8 mb 0.00 in0.0 mm 0.00 in0.0 mm 0.14 in3.6 mm
08:45 AM 48.0°F8.9°C 47.1°F8.4°C 97% 12.0 mph S19.3 kmh S 18.0 mph29.0 kmh 29.70 in1005.8 mb 0.00 in0.0 mm 0.00 in0.0 mm 0.14 in3.6 mm
08:48 AM 48.0°F8.9°C 47.1°F8.4°C 97% 12.0 mph S19.3 kmh S 18.0 mph29.0 kmh 29.70 in1005.8 mb 0.00 in0.0 mm 0.00 in0.0 mm 0.14 in3.6 mm
08:51 AM 48.0°F8.9°C 47.1°F8.4°C 97% 13.0 mph SSE20.9 kmh SSE 20.0 mph32.2 kmh 29.70 in1005.8 mb 0.00 in0.0 mm 0.00 in0.0 mm 0.14 in3.6 mm
08:54 AM 48.0°F8.9°C 47.1°F8.4°C 97% 12.0 mph S19.3 kmh S 20.0 mph32.2 kmh 29.71 in1006.1 mb 0.00 in0.0 mm 0.00 in0.0 mm 0.14 in3.6 mm
08:57 AM 47.8°F8.8°C 47.1°F8.4°C 97% 12.0 mph SSE19.3 kmh SSE 20.0 mph32.2 kmh 29.71 in1006.1 mb 0.00 in0.0 mm 0.00 in0.0 mm 0.14 in3.6 mm
09:00 AM 47.8°F8.8°C 47.1°F8.4°C 97% 11.0 mph SSE17.7 kmh SSE 18.0 mph29.0 kmh 29.71 in1006.1 mb 0.00 in0.0 mm 0.00 in0.0 mm 0.14 in3.6 mm
09:03 AM 47.8°F8.8°C 46.9°F8.3°C 97% 11.0 mph SSE17.7 kmh SSE 18.0 mph29.0 kmh 29.71 in1006.1 mb 0.00 in0.0 mm 0.00 in0.0 mm 0.14 in3.6 mm
09:06 AM 47.7°F8.7°C 46.9°F8.3°C 97% 12.0 mph SSE19.3 kmh SSE 18.0 mph29.0 kmh 29.71 in1006.1 mb 0.00 in0.0 mm 0.00 in0.0 mm 0.14 in3.6 mm
09:09 AM 47.7°F8.7°C 46.9°F8.3°C 97% 12.0 mph SSE19.3 kmh SSE 18.0 mph29.0 kmh 29.71 in1006.1 mb 0.00 in0.0 mm 0.00 in0.0 mm 0.14 in3.6 mm
09:12 AM 47.7°F8.7°C 46.9°F8.3°C 97% 12.0 mph SSE19.3 kmh SSE 18.0 mph29.0 kmh 29.71 in1006.1 mb 0.00 in0.0 mm 0.00 in0.0 mm 0.14 in3.6 mm
09:15 AM 47.7°F8.7°C 46.9°F8.3°C 97% 13.0 mph SSE20.9 kmh SSE 18.0 mph29.0 kmh 29.71 in1006.1 mb 0.00 in0.0 mm 0.00 in0.0 mm 0.14 in3.6 mm
09:18 AM 47.7°F8.7°C 46.9°F8.3°C 97% 13.0 mph SSE20.9 kmh SSE 18.0 mph29.0 kmh 29.71 in1006.1 mb 0.00 in0.0 mm 0.00 in0.0 mm 0.14 in3.6 mm
09:21 AM 47.7°F8.7°C 46.9°F8.3°C 97% 12.0 mph SSE19.3 kmh SSE 17.0 mph27.4 kmh 29.71 in1006.1 mb 0.00 in0.0 mm 0.00 in0.0 mm 0.14 in3.6 mm
09:24 AM 47.7°F8.7°C 46.9°F8.3°C 97% 12.0 mph SSE19.3 kmh SSE 17.0 mph27.4 kmh 29.71 in1006.1 mb 0.00 in0.0 mm 0.00 in0.0 mm 0.14 in3.6 mm
09:27 AM 47.7°F8.7°C 46.9°F8.3°C 97% 12.0 mph SSE19.3 kmh SSE 17.0 mph27.4 kmh 29.71 in1006.1 mb 0.00 in0.0 mm 0.00 in0.0 mm 0.14 in3.6 mm
09:30 AM 47.7°F8.7°C 46.9°F8.3°C 97% 11.0 mph SSE17.7 kmh SSE 17.0 mph27.4 kmh 29.71 in1006.1 mb 0.00 in0.0 mm 0.00 in0.0 mm 0.14 in3.6 mm
09:33 AM 47.7°F8.7°C 46.9°F8.3°C 97% 11.0 mph SSE17.7 kmh SSE 17.0 mph27.4 kmh 29.72 in1006.4 mb 0.00 in0.0 mm 0.00 in0.0 mm 0.14 in3.6 mm
09:36 AM 47.7°F8.7°C 46.8°F8.2°C 97% 10.0 mph SSE16.1 kmh SSE 17.0 mph27.4 kmh 29.72 in1006.4 mb 0.00 in0.0 mm 0.00 in0.0 mm 0.14 in3.6 mm
09:39 AM 47.7°F8.7°C 46.8°F8.2°C 97% 10.0 mph SSE16.1 kmh SSE 16.0 mph25.7 kmh 29.72 in1006.4 mb 0.00 in0.0 mm 0.00 in0.0 mm 0.14 in3.6 mm
09:42 AM 47.7°F8.7°C 46.8°F8.2°C 97% 10.0 mph SSE16.1 kmh SSE 16.0 mph25.7 kmh 29.72 in1006.4 mb 0.00 in0.0 mm 0.00 in0.0 mm 0.14 in3.6 mm
09:45 AM 47.5°F8.6°C 46.8°F8.2°C 97% 11.0 mph SSE17.7 kmh SSE 16.0 mph25.7 kmh 29.72 in1006.4 mb 0.00 in0.0 mm 0.00 in0.0 mm 0.14 in3.6 mm
09:48 AM 47.5°F8.6°C 46.8°F8.2°C 97% 12.0 mph SSE19.3 kmh SSE 16.0 mph25.7 kmh 29.72 in1006.4 mb 0.00 in0.0 mm 0.00 in0.0 mm 0.14 in3.6 mm
09:51 AM 47.7°F8.7°C 46.8°F8.2°C 97% 12.0 mph SSE19.3 kmh SSE 16.0 mph25.7 kmh 29.72 in1006.4 mb 0.00 in0.0 mm 0.00 in0.0 mm 0.14 in3.6 mm
09:54 AM 47.7°F8.7°C 46.8°F8.2°C 97% 11.0 mph SSE17.7 kmh SSE 15.0 mph24.1 kmh 29.72 in1006.4 mb 0.00 in0.0 mm 0.00 in0.0 mm 0.14 in3.6 mm
09:57 AM 47.7°F8.7°C 46.8°F8.2°C 97% 11.0 mph SSE17.7 kmh SSE 15.0 mph24.1 kmh 29.72 in1006.4 mb 0.00 in0.0 mm 0.00 in0.0 mm 0.14 in3.6 mm
10:00 AM 47.7°F8.7°C 46.9°F8.3°C 97% 10.0 mph SSE16.1 kmh SSE 15.0 mph24.1 kmh 29.72 in1006.4 mb 0.00 in0.0 mm 0.00 in0.0 mm 0.14 in3.6 mm
10:03 AM 47.7°F8.7°C 46.9°F8.3°C 97% 10.0 mph S16.1 kmh S 14.0 mph22.5 kmh 29.72 in1006.4 mb 0.00 in0.0 mm 0.00 in0.0 mm 0.14 in3.6 mm
10:06 AM 47.7°F8.7°C 46.9°F8.3°C 97% 10.0 mph S16.1 kmh S 14.0 mph22.5 kmh 29.72 in1006.4 mb 0.00 in0.0 mm 0.00 in0.0 mm 0.14 in3.6 mm
10:09 AM 47.7°F8.7°C 46.9°F8.3°C 97% 10.0 mph S16.1 kmh S 15.0 mph24.1 kmh 29.72 in1006.4 mb 0.00 in0.0 mm 0.00 in0.0 mm 0.14 in3.6 mm
10:12 AM 47.7°F8.7°C 46.9°F8.3°C 97% 9.0 mph S14.5 kmh S 15.0 mph24.1 kmh 29.73 in1006.8 mb 0.00 in0.0 mm 0.00 in0.0 mm 0.14 in3.6 mm
10:15 AM 47.7°F8.7°C 46.8°F8.2°C 97% 9.0 mph S14.5 kmh S 15.0 mph24.1 kmh 29.73 in1006.8 mb 0.00 in0.0 mm 0.00 in0.0 mm 0.14 in3.6 mm
10:18 AM 47.7°F8.7°C 46.9°F8.3°C 97% 9.0 mph S14.5 kmh S 15.0 mph24.1 kmh 29.73 in1006.8 mb 0.00 in0.0 mm 0.00 in0.0 mm 0.14 in3.6 mm
10:21 AM 47.7°F8.7°C 46.8°F8.2°C 97% 9.0 mph S14.5 kmh S 15.0 mph24.1 kmh 29.73 in1006.8 mb 0.00 in0.0 mm 0.00 in0.0 mm 0.14 in3.6 mm
10:24 AM 47.7°F8.7°C 46.8°F8.2°C 97% 9.0 mph S14.5 kmh S 15.0 mph24.1 kmh 29.73 in1006.8 mb 0.00 in0.0 mm 0.00 in0.0 mm 0.14 in3.6 mm
10:27 AM 47.5°F8.6°C 46.8°F8.2°C 97% 9.0 mph S14.5 kmh S 15.0 mph24.1 kmh 29.73 in1006.8 mb 0.00 in0.0 mm 0.00 in0.0 mm 0.14 in3.6 mm
10:30 AM 47.5°F8.6°C 46.8°F8.2°C 97% 9.0 mph S14.5 kmh S 14.0 mph22.5 kmh 29.73 in1006.8 mb 0.00 in0.0 mm 0.00 in0.0 mm 0.14 in3.6 mm
10:33 AM 47.5°F8.6°C 46.6°F8.1°C 97% 9.0 mph S14.5 kmh S 15.0 mph24.1 kmh 29.73 in1006.8 mb 0.00 in0.0 mm 0.00 in0.0 mm 0.14 in3.6 mm
10:36 AM 47.3°F8.5°C 46.6°F8.1°C 97% 10.0 mph S16.1 kmh S 16.0 mph25.7 kmh 29.73 in1006.8 mb 0.00 in0.0 mm 0.00 in0.0 mm 0.14 in3.6 mm
10:39 AM 47.3°F8.5°C 46.6°F8.1°C 97% 10.0 mph S16.1 kmh S 16.0 mph25.7 kmh 29.74 in1007.1 mb 0.00 in0.0 mm 0.00 in0.0 mm 0.14 in3.6 mm
10:42 AM 47.3°F8.5°C 46.6°F8.1°C 97% 10.0 mph S16.1 kmh S 16.0 mph25.7 kmh 29.74 in1007.1 mb 0.00 in0.0 mm 0.00 in0.0 mm 0.14 in3.6 mm
10:45 AM 47.3°F8.5°C 46.6°F8.1°C 97% 10.0 mph S16.1 kmh S 16.0 mph25.7 kmh 29.74 in1007.1 mb 0.00 in0.0 mm 0.00 in0.0 mm 0.14 in3.6 mm
10:48 AM 47.5°F8.6°C 46.6°F8.1°C 97% 9.0 mph S14.5 kmh S 16.0 mph25.7 kmh 29.74 in1007.1 mb 0.00 in0.0 mm 0.00 in0.0 mm 0.14 in3.6 mm
10:51 AM 47.5°F8.6°C 46.6°F8.1°C 97% 9.0 mph S14.5 kmh S 16.0 mph25.7 kmh 29.74 in1007.1 mb 0.00 in0.0 mm 0.00 in0.0 mm 0.14 in3.6 mm
10:54 AM 47.5°F8.6°C 46.8°F8.2°C 97% 9.0 mph S14.5 kmh S 15.0 mph24.1 kmh 29.75 in1007.5 mb 0.00 in0.0 mm 0.00 in0.0 mm 0.14 in3.6 mm
10:57 AM 47.5°F8.6°C 46.8°F8.2°C 97% 10.0 mph S16.1 kmh S 16.0 mph25.7 kmh 29.74 in1007.1 mb 0.00 in0.0 mm 0.00 in0.0 mm 0.14 in3.6 mm
11:00 AM 47.7°F8.7°C 46.8°F8.2°C 97% 10.0 mph S16.1 kmh S 16.0 mph25.7 kmh 29.74 in1007.1 mb 0.00 in0.0 mm 0.00 in0.0 mm 0.14 in3.6 mm
11:03 AM 47.7°F8.7°C 46.8°F8.2°C 97% 10.0 mph S16.1 kmh S 16.0 mph25.7 kmh 29.74 in1007.1 mb 0.00 in0.0 mm 0.00 in0.0 mm 0.14 in3.6 mm
11:06 AM 47.7°F8.7°C 46.8°F8.2°C 97% 10.0 mph S16.1 kmh S 15.0 mph24.1 kmh 29.74 in1007.1 mb 0.00 in0.0 mm 0.00 in0.0 mm 0.14 in3.6 mm
11:09 AM 47.7°F8.7°C 46.9°F8.3°C 97% 11.0 mph S17.7 kmh S 19.0 mph30.6 kmh 29.74 in1007.1 mb 0.00 in0.0 mm 0.00 in0.0 mm 0.14 in3.6 mm
11:12 AM 47.8°F8.8°C 46.9°F8.3°C 97% 11.0 mph S17.7 kmh S 19.0 mph30.6 kmh 29.74 in1007.1 mb 0.00 in0.0 mm 0.00 in0.0 mm 0.14 in3.6 mm
11:15 AM 47.8°F8.8°C 47.1°F8.4°C 97% 11.0 mph S17.7 kmh S 19.0 mph30.6 kmh 29.74 in1007.1 mb 0.00 in0.0 mm 0.00 in0.0 mm 0.14 in3.6 mm
11:18 AM 48.0°F8.9°C 46.9°F8.3°C 96% 11.0 mph S17.7 kmh S 20.0 mph32.2 kmh 29.75 in1007.5 mb 0.00 in0.0 mm 0.00 in0.0 mm 0.14 in3.6 mm
11:21 AM 48.2°F9.0°C 47.3°F8.5°C 97% 11.0 mph S17.7 kmh S 20.0 mph32.2 kmh 29.74 in1007.1 mb 0.00 in0.0 mm 0.00 in0.0 mm 0.14 in3.6 mm
11:24 AM 48.4°F9.1°C 47.7°F8.7°C 97% 11.0 mph S17.7 kmh S 20.0 mph32.2 kmh 29.75 in1007.5 mb 0.00 in0.0 mm 0.00 in0.0 mm 0.14 in3.6 mm
11:27 AM 48.4°F9.1°C 47.3°F8.5°C 96% 12.0 mph S19.3 kmh S 20.0 mph32.2 kmh 29.74 in1007.1 mb 0.00 in0.0 mm 0.00 in0.0 mm 0.14 in3.6 mm
11:30 AM 48.4°F9.1°C 47.3°F8.5°C 96% 12.0 mph S19.3 kmh S 20.0 mph32.2 kmh 29.74 in1007.1 mb 0.00 in0.0 mm 0.00 in0.0 mm 0.14 in3.6 mm
11:33 AM 48.4°F9.1°C 47.3°F8.5°C 96% 11.0 mph S17.7 kmh S 20.0 mph32.2 kmh 29.75 in1007.5 mb 0.00 in0.0 mm 0.00 in0.0 mm 0.14 in3.6 mm
11:36 AM 48.4°F9.1°C 47.3°F8.5°C 96% 10.0 mph S16.1 kmh S 18.0 mph29.0 kmh 29.75 in1007.5 mb 0.00 in0.0 mm 0.00 in0.0 mm 0.14 in3.6 mm
11:39 AM 48.2°F9.0°C 47.1°F8.4°C 96% 8.0 mph S12.9 kmh S 18.0 mph29.0 kmh 29.75 in1007.5 mb 0.00 in0.0 mm 0.00 in0.0 mm 0.14 in3.6 mm
11:42 AM 48.4°F9.1°C 47.3°F8.5°C 96% 7.0 mph S11.3 kmh S 14.0 mph22.5 kmh 29.75 in1007.5 mb 0.00 in0.0 mm 0.00 in0.0 mm 0.14 in3.6 mm
11:45 AM 48.4°F9.1°C 47.3°F8.5°C 96% 7.0 mph SSW11.3 kmh SSW 11.0 mph17.7 kmh 29.75 in1007.5 mb 0.00 in0.0 mm 0.00 in0.0 mm 0.14 in3.6 mm
11:48 AM 48.4°F9.1°C 47.3°F8.5°C 96% 6.0 mph SSW9.7 kmh SSW 11.0 mph17.7 kmh 29.75 in1007.5 mb 0.00 in0.0 mm 0.00 in0.0 mm 0.14 in3.6 mm
11:51 AM 48.4°F9.1°C 47.3°F8.5°C 96% 6.0 mph SSW9.7 kmh SSW 11.0 mph17.7 kmh 29.75 in1007.5 mb 0.00 in0.0 mm 0.00 in0.0 mm 0.14 in3.6 mm
11:54 AM 48.6°F9.2°C 47.5°F8.6°C 96% 4.0 mph SSW6.4 kmh SSW 10.0 mph16.1 kmh 29.75 in1007.5 mb 0.00 in0.0 mm 0.00 in0.0 mm 0.14 in3.6 mm
11:57 AM 48.6°F9.2°C 47.1°F8.4°C 95% 4.0 mph SSW6.4 kmh SSW 7.0 mph11.3 kmh 29.75 in1007.5 mb 0.00 in0.0 mm 0.00 in0.0 mm 0.14 in3.6 mm
12:00 PM 48.6°F9.2°C 47.3°F8.5°C 95% 4.0 mph SSW6.4 kmh SSW 8.0 mph12.9 kmh 29.75 in1007.5 mb 0.00 in0.0 mm 0.00 in0.0 mm 0.14 in3.6 mm
12:03 PM 48.6°F9.2°C 47.3°F8.5°C 95% 4.0 mph SSW6.4 kmh SSW 8.0 mph12.9 kmh 29.75 in1007.5 mb 0.00 in0.0 mm 0.00 in0.0 mm 0.14 in3.6 mm
12:06 PM 48.7°F9.3°C 47.3°F8.5°C 95% 4.0 mph SSW6.4 kmh SSW 8.0 mph12.9 kmh 29.75 in1007.5 mb 0.00 in0.0 mm 0.00 in0.0 mm 0.14 in3.6 mm
12:09 PM 48.9°F9.4°C 47.5°F8.6°C 95% 6.0 mph S9.7 kmh S 16.0 mph25.7 kmh 29.75 in1007.5 mb 0.00 in0.0 mm 0.00 in0.0 mm 0.14 in3.6 mm
12:12 PM 48.9°F9.4°C 47.7°F8.7°C 95% 7.0 mph S11.3 kmh S 18.0 mph29.0 kmh 29.75 in1007.5 mb 0.00 in0.0 mm 0.00 in0.0 mm 0.14 in3.6 mm
12:15 PM 48.9°F9.4°C 47.7°F8.7°C 95% 8.0 mph S12.9 kmh S 18.0 mph29.0 kmh 29.75 in1007.5 mb 0.00 in0.0 mm 0.00 in0.0 mm 0.14 in3.6 mm
12:18 PM 48.9°F9.4°C 47.3°F8.5°C 94% 7.0 mph SSW11.3 kmh SSW 18.0 mph29.0 kmh 29.75 in1007.5 mb 0.00 in0.0 mm 0.00 in0.0 mm 0.14 in3.6 mm
12:21 PM 48.7°F9.3°C 47.1°F8.4°C 94% 6.0 mph SW9.7 kmh SW 14.0 mph22.5 kmh 29.75 in1007.5 mb 0.00 in0.0 mm 0.00 in0.0 mm 0.14 in3.6 mm
12:24 PM 48.6°F9.2°C 46.9°F8.3°C 94% 6.0 mph SW9.7 kmh SW 13.0 mph20.9 kmh 29.75 in1007.5 mb 0.00 in0.0 mm 0.00 in0.0 mm 0.14 in3.6 mm
12:27 PM 48.6°F9.2°C 46.9°F8.3°C 94% 6.0 mph SW9.7 kmh SW 13.0 mph20.9 kmh 29.75 in1007.5 mb 0.00 in0.0 mm 0.00 in0.0 mm 0.14 in3.6 mm
12:30 PM 48.6°F9.2°C 46.9°F8.3°C 94% 6.0 mph SW9.7 kmh SW 13.0 mph20.9 kmh 29.75 in1007.5 mb 0.00 in0.0 mm 0.00 in0.0 mm 0.14 in3.6 mm
12:33 PM 48.6°F9.2°C 46.9°F8.3°C 94% 6.0 mph SSW9.7 kmh SSW 13.0 mph20.9 kmh 29.75 in1007.5 mb 0.00 in0.0 mm 0.00 in0.0 mm 0.14 in3.6 mm
12:36 PM 48.9°F9.4°C 47.3°F8.5°C 94% 5.0 mph SSW8.0 kmh SSW 9.0 mph14.5 kmh 29.75 in1007.5 mb 0.00 in0.0 mm 0.00 in0.0 mm 0.14 in3.6 mm
12:39 PM 49.3°F9.6°C 47.5°F8.6°C 94% 6.0 mph SSW9.7 kmh SSW 13.0 mph20.9 kmh 29.75 in1007.5 mb 0.00 in0.0 mm 0.00 in0.0 mm 0.14 in3.6 mm
12:42 PM 49.3°F9.6°C 47.3°F8.5°C 93% 6.0 mph SSW9.7 kmh SSW 13.0 mph20.9 kmh 29.75 in1007.5 mb 0.00 in0.0 mm 0.00 in0.0 mm 0.14 in3.6 mm
12:45 PM 49.3°F9.6°C 46.9°F8.3°C 92% 7.0 mph S11.3 kmh S 15.0 mph24.1 kmh 29.76 in1007.8 mb 0.00 in0.0 mm 0.00 in0.0 mm 0.14 in3.6 mm
12:48 PM 49.1°F9.5°C 46.9°F8.3°C 92% 7.0 mph S11.3 kmh S 15.0 mph24.1 kmh 29.75 in1007.5 mb 0.00 in0.0 mm 0.00 in0.0 mm 0.14 in3.6 mm
12:51 PM 49.3°F9.6°C 47.1°F8.4°C 92% 6.0 mph S9.7 kmh S 15.0 mph24.1 kmh 29.75 in1007.5 mb 0.00 in0.0 mm 0.00 in0.0 mm 0.14 in3.6 mm
12:54 PM 49.5°F9.7°C 47.1°F8.4°C 92% 6.0 mph SSW9.7 kmh SSW 11.0 mph17.7 kmh 29.75 in1007.5 mb 0.00 in0.0 mm 0.00 in0.0 mm 0.14 in3.6 mm
12:57 PM 49.5°F9.7°C 46.9°F8.3°C 91% 6.0 mph SSW9.7 kmh SSW 11.0 mph17.7 kmh 29.76 in1007.8 mb 0.00 in0.0 mm 0.00 in0.0 mm 0.14 in3.6 mm
01:00 PM 49.5°F9.7°C 46.9°F8.3°C 91% 6.0 mph S9.7 kmh S 11.0 mph17.7 kmh 29.76 in1007.8 mb 0.00 in0.0 mm 0.00 in0.0 mm 0.14 in3.6 mm
01:03 PM 49.5°F9.7°C 46.9°F8.3°C 91% 6.0 mph S9.7 kmh S 11.0 mph17.7 kmh 29.75 in1007.5 mb 0.00 in0.0 mm 0.00 in0.0 mm 0.14 in3.6 mm
01:06 PM 49.6°F9.8°C 46.9°F8.3°C 90% 6.0 mph S9.7 kmh S 12.0 mph19.3 kmh 29.75 in1007.5 mb 0.00 in0.0 mm 0.00 in0.0 mm 0.14 in3.6 mm
01:09 PM 49.8°F9.9°C 47.1°F8.4°C 90% 7.0 mph S11.3 kmh S 12.0 mph19.3 kmh 29.75 in1007.5 mb 0.00 in0.0 mm 0.00 in0.0 mm 0.14 in3.6 mm
01:12 PM 50.0°F10.0°C 46.9°F8.3°C 89% 6.0 mph SSW9.7 kmh SSW 13.0 mph20.9 kmh 29.75 in1007.5 mb 0.00 in0.0 mm 0.00 in0.0 mm 0.14 in3.6 mm
01:15 PM 50.0°F10.0°C 46.9°F8.3°C 89% 6.0 mph SSW9.7 kmh SSW 13.0 mph20.9 kmh 29.75 in1007.5 mb 0.00 in0.0 mm 0.00 in0.0 mm 0.14 in3.6 mm
01:18 PM 49.8°F9.9°C 46.4°F8.0°C 88% 6.0 mph SSW9.7 kmh SSW 13.0 mph20.9 kmh 29.75 in1007.5 mb 0.00 in0.0 mm 0.00 in0.0 mm 0.14 in3.6 mm
01:21 PM 49.6°F9.8°C 46.0°F7.8°C 87% 7.0 mph SSW11.3 kmh SSW 14.0 mph22.5 kmh 29.75 in1007.5 mb 0.00 in0.0 mm 0.00 in0.0 mm 0.14 in3.6 mm
01:24 PM 49.6°F9.8°C 45.9°F7.7°C 87% 7.0 mph SSW11.3 kmh SSW 14.0 mph22.5 kmh 29.75 in1007.5 mb 0.00 in0.0 mm 0.00 in0.0 mm 0.14 in3.6 mm
01:27 PM 49.5°F9.7°C 45.7°F7.6°C 87% 7.0 mph SSW11.3 kmh SSW 14.0 mph22.5 kmh 29.75 in1007.5 mb 0.00 in0.0 mm 0.00 in0.0 mm 0.14 in3.6 mm
01:30 PM 49.3°F9.6°C 45.7°F7.6°C 87% 7.0 mph S11.3 kmh S 13.0 mph20.9 kmh 29.75 in1007.5 mb 0.00 in0.0 mm 0.00 in0.0 mm 0.14 in3.6 mm
01:33 PM 49.3°F9.6°C 45.7°F7.6°C 87% 8.0 mph S12.9 kmh S 13.0 mph20.9 kmh 29.75 in1007.5 mb 0.00 in0.0 mm 0.00 in0.0 mm 0.14 in3.6 mm
01:36 PM 49.3°F9.6°C 45.5°F7.5°C 87% 9.0 mph S14.5 kmh S 13.0 mph20.9 kmh 29.75 in1007.5 mb 0.00 in0.0 mm 0.00 in0.0 mm 0.14 in3.6 mm
01:39 PM 49.1°F9.5°C 45.1°F7.3°C 86% 10.0 mph S16.1 kmh S 16.0 mph25.7 kmh 29.75 in1007.5 mb 0.00 in0.0 mm 0.00 in0.0 mm 0.14 in3.6 mm
01:42 PM 49.1°F9.5°C 45.1°F7.3°C 86% 10.0 mph S16.1 kmh S 16.0 mph25.7 kmh 29.75 in1007.5 mb 0.00 in0.0 mm 0.00 in0.0 mm 0.14 in3.6 mm
01:45 PM 48.9°F9.4°C 45.0°F7.2°C 86% 9.0 mph S14.5 kmh S 16.0 mph25.7 kmh 29.75 in1007.5 mb 0.00 in0.0 mm 0.00 in0.0 mm 0.14 in3.6 mm
01:48 PM 48.9°F9.4°C 45.3°F7.4°C 87% 8.0 mph S12.9 kmh S 16.0 mph25.7 kmh 29.75 in1007.5 mb 0.00 in0.0 mm 0.00 in0.0 mm 0.14 in3.6 mm
01:51 PM 48.9°F9.4°C 45.1°F7.3°C 87% 8.0 mph S12.9 kmh S 15.0 mph24.1 kmh 29.75 in1007.5 mb 0.00 in0.0 mm 0.00 in0.0 mm 0.14 in3.6 mm
01:54 PM 48.9°F9.4°C 45.1°F7.3°C 87% 8.0 mph S12.9 kmh S 14.0 mph22.5 kmh 29.75 in1007.5 mb 0.00 in0.0 mm 0.00 in0.0 mm 0.14 in3.6 mm
01:57 PM 48.7°F9.3°C 45.1°F7.3°C 87% 9.0 mph S14.5 kmh S 14.0 mph22.5 kmh 29.75 in1007.5 mb 0.00 in0.0 mm 0.00 in0.0 mm 0.14 in3.6 mm
02:00 PM 48.7°F9.3°C 45.1°F7.3°C 87% 9.0 mph S14.5 kmh S 14.0 mph22.5 kmh 29.75 in1007.5 mb 0.00 in0.0 mm 0.00 in0.0 mm 0.14 in3.6 mm
02:03 PM 48.7°F9.3°C 45.1°F7.3°C 87% 9.0 mph S14.5 kmh S 13.0 mph20.9 kmh 29.75 in1007.5 mb 0.00 in0.0 mm 0.00 in0.0 mm 0.14 in3.6 mm
02:06 PM 48.7°F9.3°C 45.1°F7.3°C 87% 8.0 mph S12.9 kmh S 13.0 mph20.9 kmh 29.75 in1007.5 mb 0.00 in0.0 mm 0.00 in0.0 mm 0.14 in3.6 mm
02:09 PM 48.9°F9.4°C 45.1°F7.3°C 87% 7.0 mph S11.3 kmh S 12.0 mph19.3 kmh 29.75 in1007.5 mb 0.00 in0.0 mm 0.00 in0.0 mm 0.14 in3.6 mm
02:12 PM 48.7°F9.3°C 45.1°F7.3°C 87% 7.0 mph S11.3 kmh S 12.0 mph19.3 kmh 29.75 in1007.5 mb 0.00 in0.0 mm 0.00 in0.0 mm 0.14 in3.6 mm
02:15 PM 48.7°F9.3°C 45.1°F7.3°C 87% 8.0 mph S12.9 kmh S 13.0 mph20.9 kmh 29.76 in1007.8 mb 0.00 in0.0 mm 0.00 in0.0 mm 0.14 in3.6 mm
02:18 PM 48.7°F9.3°C 44.8°F7.1°C 86% 8.0 mph S12.9 kmh S 13.0 mph20.9 kmh 29.76 in1007.8 mb 0.00 in0.0 mm 0.00 in0.0 mm 0.14 in3.6 mm
02:21 PM 48.7°F9.3°C 44.8°F7.1°C 86% 8.0 mph S12.9 kmh S 13.0 mph20.9 kmh 29.76 in1007.8 mb 0.00 in0.0 mm 0.00 in0.0 mm 0.14 in3.6 mm
02:24 PM 48.7°F9.3°C 44.8°F7.1°C 86% 8.0 mph S12.9 kmh S 13.0 mph20.9 kmh 29.76 in1007.8 mb 0.00 in0.0 mm 0.00 in0.0 mm 0.14 in3.6 mm
02:27 PM 48.7°F9.3°C 45.0°F7.2°C 87% 8.0 mph S12.9 kmh S 14.0 mph22.5 kmh 29.76 in1007.8 mb 0.00 in0.0 mm 0.00 in0.0 mm 0.14 in3.6 mm
02:30 PM 48.6°F9.2°C 44.6°F7.0°C 86% 8.0 mph S12.9 kmh S 14.0 mph22.5 kmh 29.76 in1007.8 mb 0.00 in0.0 mm 0.00 in0.0 mm 0.14 in3.6 mm
02:33 PM 48.6°F9.2°C 45.0°F7.2°C 87% 8.0 mph S12.9 kmh S 14.0 mph22.5 kmh 29.76 in1007.8 mb 0.00 in0.0 mm 0.00 in0.0 mm 0.14 in3.6 mm
02:36 PM 48.6°F9.2°C 45.0°F7.2°C 87% 8.0 mph S12.9 kmh S 14.0 mph22.5 kmh 29.76 in1007.8 mb 0.00 in0.0 mm 0.00 in0.0 mm 0.14 in3.6 mm
02:39 PM 48.7°F9.3°C 45.0°F7.2°C 87% 8.0 mph S12.9 kmh S 12.0 mph19.3 kmh 29.76 in1007.8 mb 0.00 in0.0 mm 0.00 in0.0 mm 0.14 in3.6 mm
02:42 PM 48.9°F9.4°C 45.1°F7.3°C 87% 8.0 mph S12.9 kmh S 11.0 mph17.7 kmh 29.76 in1007.8 mb 0.00 in0.0 mm 0.00 in0.0 mm 0.14 in3.6 mm
02:45 PM 49.3°F9.6°C 45.9°F7.7°C 88% 8.0 mph S12.9 kmh S 11.0 mph17.7 kmh 29.76 in1007.8 mb 0.00 in0.0 mm 0.00 in0.0 mm 0.14 in3.6 mm
02:48 PM 49.6°F9.8°C 45.9°F7.7°C 87% 8.0 mph S12.9 kmh S 12.0 mph19.3 kmh 29.76 in1007.8 mb 0.00 in0.0 mm 0.00 in0.0 mm 0.14 in3.6 mm
02:51 PM 50.0°F10.0°C 46.2°F7.9°C 87% 8.0 mph S12.9 kmh S 12.0 mph19.3 kmh 29.76 in1007.8 mb 0.00 in0.0 mm 0.00 in0.0 mm 0.14 in3.6 mm
02:54 PM 50.4°F10.2°C 46.2°F7.9°C 86% 8.0 mph S12.9 kmh S 12.0 mph19.3 kmh 29.77 in1008.1 mb 0.00 in0.0 mm 0.00 in0.0 mm 0.14 in3.6 mm
02:57 PM 50.5°F10.3°C 46.2°F7.9°C 85% 8.0 mph S12.9 kmh S 12.0 mph19.3 kmh 29.77 in1008.1 mb 0.00 in0.0 mm 0.00 in0.0 mm 0.14 in3.6 mm
03:00 PM 50.7°F10.4°C 46.4°F8.0°C 85% 8.0 mph S12.9 kmh S 12.0 mph19.3 kmh 29.77 in1008.1 mb 0.00 in0.0 mm 0.00 in0.0 mm 0.14 in3.6 mm
03:03 PM 50.7°F10.4°C 46.0°F7.8°C 84% 8.0 mph S12.9 kmh S 13.0 mph20.9 kmh 29.77 in1008.1 mb 0.00 in0.0 mm 0.00 in0.0 mm 0.14 in3.6 mm
03:06 PM 50.7°F10.4°C 46.2°F7.9°C 84% 8.0 mph S12.9 kmh S 15.0 mph24.1 kmh 29.77 in1008.1 mb 0.00 in0.0 mm 0.00 in0.0 mm 0.14 in3.6 mm
03:09 PM 50.7°F10.4°C 46.2°F7.9°C 84% 8.0 mph S12.9 kmh S 15.0 mph24.1 kmh 29.77 in1008.1 mb 0.00 in0.0 mm 0.00 in0.0 mm 0.14 in3.6 mm
03:12 PM 50.9°F10.5°C 46.2°F7.9°C 84% 8.0 mph S12.9 kmh S 15.0 mph24.1 kmh 29.77 in1008.1 mb 0.00 in0.0 mm 0.00 in0.0 mm 0.14 in3.6 mm
03:15 PM 50.9°F10.5°C 46.2°F7.9°C 84% 8.0 mph S12.9 kmh S 15.0 mph24.1 kmh 29.77 in1008.1 mb 0.00 in0.0 mm 0.00 in0.0 mm 0.14 in3.6 mm
03:18 PM 50.7°F10.4°C 46.2°F7.9°C 84% 8.0 mph S12.9 kmh S 14.0 mph22.5 kmh 29.77 in1008.1 mb 0.00 in0.0 mm 0.00 in0.0 mm 0.14 in3.6 mm
03:21 PM 50.5°F10.3°C 45.9°F7.7°C 84% 8.0 mph S12.9 kmh S 14.0 mph22.5 kmh 29.77 in1008.1 mb 0.00 in0.0 mm 0.00 in0.0 mm 0.14 in3.6 mm
03:24 PM 50.5°F10.3°C 46.2°F7.9°C 85% 8.0 mph S12.9 kmh S 14.0 mph22.5 kmh 29.77 in1008.1 mb 0.00 in0.0 mm 0.00 in0.0 mm 0.14 in3.6 mm
03:27 PM 50.4°F10.2°C 46.0°F7.8°C 85% 7.0 mph S11.3 kmh S 14.0 mph22.5 kmh 29.77 in1008.1 mb 0.00 in0.0 mm 0.00 in0.0 mm 0.14 in3.6 mm
03:30 PM 50.2°F10.1°C 45.9°F7.7°C 85% 7.0 mph S11.3 kmh S 11.0 mph17.7 kmh 29.78 in1008.5 mb 0.00 in0.0 mm 0.00 in0.0 mm 0.14 in3.6 mm
03:33 PM 50.2°F10.1°C 45.7°F7.6°C 85% 8.0 mph S12.9 kmh S 12.0 mph19.3 kmh 29.78 in1008.5 mb 0.00 in0.0 mm 0.00 in0.0 mm 0.14 in3.6 mm
03:36 PM 50.0°F10.0°C 45.3°F7.4°C 84% 8.0 mph S12.9 kmh S 12.0 mph19.3 kmh 29.78 in1008.5 mb 0.00 in0.0 mm 0.00 in0.0 mm 0.14 in3.6 mm
03:39 PM 49.8°F9.9°C 45.1°F7.3°C 84% 8.0 mph S12.9 kmh S 12.0 mph19.3 kmh 29.78 in1008.5 mb 0.00 in0.0 mm 0.00 in0.0 mm 0.14 in3.6 mm
03:42 PM 49.8°F9.9°C 45.1°F7.3°C 84% 7.0 mph S11.3 kmh S 11.0 mph17.7 kmh 29.78 in1008.5 mb 0.00 in0.0 mm 0.00 in0.0 mm 0.14 in3.6 mm
03:45 PM 49.6°F9.8°C 45.3°F7.4°C 85% 7.0 mph S11.3 kmh S 11.0 mph17.7 kmh 29.78 in1008.5 mb 0.00 in0.0 mm 0.00 in0.0 mm 0.14 in3.6 mm
03:48 PM 49.5°F9.7°C 45.1°F7.3°C 85% 7.0 mph S11.3 kmh S 11.0 mph17.7 kmh 29.78 in1008.5 mb 0.00 in0.0 mm 0.00 in0.0 mm 0.14 in3.6 mm
03:51 PM 49.5°F9.7°C 45.1°F7.3°C 85% 7.0 mph S11.3 kmh S 11.0 mph17.7 kmh 29.78 in1008.5 mb 0.00 in0.0 mm 0.00 in0.0 mm 0.14 in3.6 mm
03:54 PM 49.3°F9.6°C 45.0°F7.2°C 85% 7.0 mph S11.3 kmh S 12.0 mph19.3 kmh 29.78 in1008.5 mb 0.00 in0.0 mm 0.00 in0.0 mm 0.14 in3.6 mm
03:57 PM 49.3°F9.6°C 45.1°F7.3°C 86% 7.0 mph S11.3 kmh S 12.0 mph19.3 kmh 29.78 in1008.5 mb 0.00 in0.0 mm 0.00 in0.0 mm 0.14 in3.6 mm
04:00 PM 49.1°F9.5°C 45.1°F7.3°C 86% 7.0 mph S11.3 kmh S 12.0 mph19.3 kmh 29.78 in1008.5 mb 0.00 in0.0 mm 0.00 in0.0 mm 0.14 in3.6 mm
04:03 PM 48.9°F9.4°C 45.0°F7.2°C 86% 7.0 mph S11.3 kmh S 11.0 mph17.7 kmh 29.78 in1008.5 mb 0.00 in0.0 mm 0.00 in0.0 mm 0.14 in3.6 mm
04:06 PM 48.9°F9.4°C 45.0°F7.2°C 86% 7.0 mph S11.3 kmh S 11.0 mph17.7 kmh 29.78 in1008.5 mb 0.00 in0.0 mm 0.00 in0.0 mm 0.14 in3.6 mm
04:09 PM 48.7°F9.3°C 44.8°F7.1°C 86% 7.0 mph S11.3 kmh S 11.0 mph17.7 kmh 29.79 in1008.8 mb 0.00 in0.0 mm 0.00 in0.0 mm 0.14 in3.6 mm
04:12 PM 48.6°F9.2°C 44.6°F7.0°C 86% 7.0 mph S11.3 kmh S 11.0 mph17.7 kmh 29.79 in1008.8 mb 0.00 in0.0 mm 0.00 in0.0 mm 0.14 in3.6 mm
04:15 PM 48.6°F9.2°C 44.8°F7.1°C 87% 7.0 mph S11.3 kmh S 11.0 mph17.7 kmh 29.79 in1008.8 mb 0.00 in0.0 mm 0.00 in0.0 mm 0.14 in3.6 mm
04:18 PM 48.4°F9.1°C 44.6°F7.0°C 87% 7.0 mph S11.3 kmh S 11.0 mph17.7 kmh 29.79 in1008.8 mb 0.00 in0.0 mm 0.00 in0.0 mm 0.14 in3.6 mm
04:21 PM 48.2°F9.0°C 44.6°F7.0°C 87% 7.0 mph S11.3 kmh S 11.0 mph17.7 kmh 29.79 in1008.8 mb 0.00 in0.0 mm 0.00 in0.0 mm 0.14 in3.6 mm
04:24 PM 48.0°F8.9°C 44.8°F7.1°C 88% 7.0 mph S11.3 kmh S 10.0 mph16.1 kmh 29.79 in1008.8 mb 0.00 in0.0 mm 0.00 in0.0 mm 0.14 in3.6 mm
04:27 PM 47.8°F8.8°C 44.6°F7.0°C 88% 7.0 mph S11.3 kmh S 11.0 mph17.7 kmh 29.79 in1008.8 mb 0.00 in0.0 mm 0.00 in0.0 mm 0.14 in3.6 mm
04:30 PM 47.8°F8.8°C 44.4°F6.9°C 88% 7.0 mph S11.3 kmh S 11.0 mph17.7 kmh 29.79 in1008.8 mb 0.00 in0.0 mm 0.00 in0.0 mm 0.14 in3.6 mm
04:33 PM 47.7°F8.7°C 44.2°F6.8°C 88% 7.0 mph S11.3 kmh S 11.0 mph17.7 kmh 29.79 in1008.8 mb 0.00 in0.0 mm 0.00 in0.0 mm 0.14 in3.6 mm
04:36 PM 47.5°F8.6°C 44.1°F6.7°C 88% 7.0 mph SSE11.3 kmh SSE 11.0 mph17.7 kmh 29.79 in1008.8 mb 0.00 in0.0 mm 0.00 in0.0 mm 0.14 in3.6 mm
04:39 PM 47.1°F8.4°C 44.1°F6.7°C 89% 7.0 mph SSE11.3 kmh SSE 11.0 mph17.7 kmh 29.79 in1008.8 mb 0.00 in0.0 mm 0.00 in0.0 mm 0.14 in3.6 mm
04:42 PM 47.1°F8.4°C 44.1°F6.7°C 89% 7.0 mph SSE11.3 kmh SSE 11.0 mph17.7 kmh 29.80 in1009.1 mb 0.00 in0.0 mm 0.00 in0.0 mm 0.14 in3.6 mm
04:45 PM 46.9°F8.3°C 44.1°F6.7°C 90% 7.0 mph SSE11.3 kmh SSE 11.0 mph17.7 kmh 29.79 in1008.8 mb 0.00 in0.0 mm 0.00 in0.0 mm 0.14 in3.6 mm
04:48 PM 46.8°F8.2°C 44.1°F6.7°C 90% 7.0 mph SSE11.3 kmh SSE 11.0 mph17.7 kmh 29.80 in1009.1 mb 0.00 in0.0 mm 0.00 in0.0 mm 0.14 in3.6 mm
04:51 PM 46.8°F8.2°C 43.9°F6.6°C 90% 7.0 mph S11.3 kmh S 11.0 mph17.7 kmh 29.80 in1009.1 mb 0.00 in0.0 mm 0.00 in0.0 mm 0.14 in3.6 mm
04:54 PM 46.6°F8.1°C 44.1°F6.7°C 91% 7.0 mph S11.3 kmh S 11.0 mph17.7 kmh 29.80 in1009.1 mb 0.00 in0.0 mm 0.00 in0.0 mm 0.14 in3.6 mm
04:57 PM 46.4°F8.0°C 43.9°F6.6°C 91% 7.0 mph S11.3 kmh S 10.0 mph16.1 kmh 29.80 in1009.1 mb 0.00 in0.0 mm 0.00 in0.0 mm 0.14 in3.6 mm
05:00 PM 46.2°F7.9°C 43.9°F6.6°C 91% 7.0 mph S11.3 kmh S 11.0 mph17.7 kmh 29.80 in1009.1 mb 0.00 in0.0 mm 0.00 in0.0 mm 0.14 in3.6 mm
05:03 PM 46.2°F7.9°C 43.7°F6.5°C 91% 7.0 mph S11.3 kmh S 12.0 mph19.3 kmh 29.80 in1009.1 mb 0.00 in0.0 mm 0.00 in0.0 mm 0.14 in3.6 mm
05:06 PM 46.2°F7.9°C 43.7°F6.5°C 91% 8.0 mph S12.9 kmh S 12.0 mph19.3 kmh 29.80 in1009.1 mb 0.00 in0.0 mm 0.00 in0.0 mm 0.14 in3.6 mm
05:09 PM 46.2°F7.9°C 43.7°F6.5°C 91% 8.0 mph S12.9 kmh S 13.0 mph20.9 kmh 29.80 in1009.1 mb 0.00 in0.0 mm 0.00 in0.0 mm 0.14 in3.6 mm
05:12 PM 46.2°F7.9°C 43.7°F6.5°C 91% 8.0 mph S12.9 kmh S 14.0 mph22.5 kmh 29.80 in1009.1 mb 0.00 in0.0 mm 0.00 in0.0 mm 0.14 in3.6 mm
05:15 PM 46.2°F7.9°C 43.7°F6.5°C 91% 8.0 mph S12.9 kmh S 14.0 mph22.5 kmh 29.81 in1009.5 mb 0.00 in0.0 mm 0.00 in0.0 mm 0.14 in3.6 mm
05:18 PM 46.2°F7.9°C 43.7°F6.5°C 91% 8.0 mph S12.9 kmh S 14.0 mph22.5 kmh 29.81 in1009.5 mb 0.00 in0.0 mm 0.00 in0.0 mm 0.14 in3.6 mm
05:21 PM 46.2°F7.9°C 43.7°F6.5°C 91% 8.0 mph S12.9 kmh S 13.0 mph20.9 kmh 29.81 in1009.5 mb 0.00 in0.0 mm 0.00 in0.0 mm 0.14 in3.6 mm
05:24 PM 46.0°F7.8°C 43.7°F6.5°C 91% 8.0 mph S12.9 kmh S 12.0 mph19.3 kmh 29.81 in1009.5 mb 0.00 in0.0 mm 0.00 in0.0 mm 0.14 in3.6 mm
05:27 PM 46.0°F7.8°C 43.9°F6.6°C 92% 8.0 mph S12.9 kmh S 12.0 mph19.3 kmh 29.81 in1009.5 mb 0.00 in0.0 mm 0.00 in0.0 mm 0.14 in3.6 mm
05:30 PM 46.0°F7.8°C 43.9°F6.6°C 92% 7.0 mph S11.3 kmh S 12.0 mph19.3 kmh 29.81 in1009.5 mb 0.00 in0.0 mm 0.00 in0.0 mm 0.14 in3.6 mm
05:33 PM 46.0°F7.8°C 43.9°F6.6°C 92% 7.0 mph S11.3 kmh S 10.0 mph16.1 kmh 29.81 in1009.5 mb 0.00 in0.0 mm 0.00 in0.0 mm 0.14 in3.6 mm
05:36 PM 45.9°F7.7°C 43.7°F6.5°C 92% 7.0 mph S11.3 kmh S 10.0 mph16.1 kmh 29.82 in1009.8 mb 0.00 in0.0 mm 0.00 in0.0 mm 0.14 in3.6 mm
05:39 PM 45.9°F7.7°C 43.7°F6.5°C 92% 8.0 mph S12.9 kmh S 12.0 mph19.3 kmh 29.81 in1009.5 mb 0.00 in0.0 mm 0.00 in0.0 mm 0.14 in3.6 mm
05:42 PM 45.9°F7.7°C 43.7°F6.5°C 92% 8.0 mph S12.9 kmh S 12.0 mph19.3 kmh 29.82 in1009.8 mb 0.00 in0.0 mm 0.00 in0.0 mm 0.14 in3.6 mm
05:45 PM 45.9°F7.7°C 43.5°F6.4°C 92% 9.0 mph SSE14.5 kmh SSE 12.0 mph19.3 kmh 29.82 in1009.8 mb 0.00 in0.0 mm 0.00 in0.0 mm 0.14 in3.6 mm
05:48 PM 45.9°F7.7°C 43.5°F6.4°C 92% 9.0 mph S14.5 kmh S 12.0 mph19.3 kmh 29.82 in1009.8 mb 0.00 in0.0 mm 0.00 in0.0 mm 0.14 in3.6 mm
05:51 PM 45.9°F7.7°C 43.9°F6.6°C 93% 9.0 mph SSE14.5 kmh SSE 13.0 mph20.9 kmh 29.82 in1009.8 mb 0.00 in0.0 mm 0.00 in0.0 mm 0.14 in3.6 mm
05:54 PM 45.9°F7.7°C 43.9°F6.6°C 93% 9.0 mph SSE14.5 kmh SSE 13.0 mph20.9 kmh 29.82 in1009.8 mb 0.00 in0.0 mm 0.00 in0.0 mm 0.14 in3.6 mm
05:57 PM 45.9°F7.7°C 44.1°F6.7°C 93% 9.0 mph SSE14.5 kmh SSE 13.0 mph20.9 kmh 29.82 in1009.8 mb 0.00 in0.0 mm 0.00 in0.0 mm 0.14 in3.6 mm
06:00 PM 45.9°F7.7°C 44.1°F6.7°C 93% 9.0 mph SSE14.5 kmh SSE 12.0 mph19.3 kmh 29.83 in1010.2 mb 0.00 in0.0 mm 0.00 in0.0 mm 0.14 in3.6 mm
06:03 PM 45.9°F7.7°C 44.1°F6.7°C 93% 9.0 mph SSE14.5 kmh SSE 12.0 mph19.3 kmh 29.83 in1010.2 mb 0.00 in0.0 mm 0.00 in0.0 mm 0.14 in3.6 mm
06:06 PM 46.0°F7.8°C 44.1°F6.7°C 93% 9.0 mph S14.5 kmh S 12.0 mph19.3 kmh 29.82 in1009.8 mb 0.00 in0.0 mm 0.00 in0.0 mm 0.14 in3.6 mm
06:09 PM 46.0°F7.8°C 44.1°F6.7°C 93% 9.0 mph S14.5 kmh S 12.0 mph19.3 kmh 29.83 in1010.2 mb 0.00 in0.0 mm 0.00 in0.0 mm 0.14 in3.6 mm
06:12 PM 46.0°F7.8°C 44.1°F6.7°C 93% 9.0 mph SSE14.5 kmh SSE 12.0 mph19.3 kmh 29.83 in1010.2 mb 0.00 in0.0 mm 0.00 in0.0 mm 0.14 in3.6 mm
06:15 PM 46.0°F7.8°C 44.1°F6.7°C 93% 9.0 mph S14.5 kmh S 12.0 mph19.3 kmh 29.83 in1010.2 mb 0.00 in0.0 mm 0.00 in0.0 mm 0.14 in3.6 mm
06:18 PM 46.0°F7.8°C 44.1°F6.7°C 93% 8.0 mph S12.9 kmh S 12.0 mph19.3 kmh 29.83 in1010.2 mb 0.00 in0.0 mm 0.00 in0.0 mm 0.14 in3.6 mm
06:21 PM 45.9°F7.7°C 44.1°F6.7°C 93% 8.0 mph S12.9 kmh S 12.0 mph19.3 kmh 29.83 in1010.2 mb 0.00 in0.0 mm 0.00 in0.0 mm 0.14 in3.6 mm
06:24 PM 45.9°F7.7°C 44.1°F6.7°C 93% 8.0 mph S12.9 kmh S 12.0 mph19.3 kmh 29.83 in1010.2 mb 0.00 in0.0 mm 0.00 in0.0 mm 0.14 in3.6 mm
06:27 PM 45.9°F7.7°C 43.9°F6.6°C 93% 8.0 mph S12.9 kmh S 11.0 mph17.7 kmh 29.83 in1010.2 mb 0.00 in0.0 mm 0.00 in0.0 mm 0.14 in3.6 mm
06:30 PM 45.7°F7.6°C 43.9°F6.6°C 93% 8.0 mph S12.9 kmh S 11.0 mph17.7 kmh 29.84 in1010.5 mb 0.00 in0.0 mm 0.00 in0.0 mm 0.14 in3.6 mm
06:33 PM 45.7°F7.6°C 43.9°F6.6°C 93% 8.0 mph S12.9 kmh S 11.0 mph17.7 kmh 29.84 in1010.5 mb 0.00 in0.0 mm 0.00 in0.0 mm 0.14 in3.6 mm
06:36 PM 45.7°F7.6°C 44.1°F6.7°C 94% 8.0 mph S12.9 kmh S 11.0 mph17.7 kmh 29.84 in1010.5 mb 0.00 in0.0 mm 0.00 in0.0 mm 0.14 in3.6 mm
06:39 PM 45.7°F7.6°C 43.7°F6.5°C 93% 8.0 mph S12.9 kmh S 11.0 mph17.7 kmh 29.84 in1010.5 mb 0.00 in0.0 mm 0.00 in0.0 mm 0.14 in3.6 mm
06:42 PM 45.7°F7.6°C 44.1°F6.7°C 94% 8.0 mph S12.9 kmh S 11.0 mph17.7 kmh 29.84 in1010.5 mb 0.00 in0.0 mm 0.00 in0.0 mm 0.14 in3.6 mm
06:45 PM 45.7°F7.6°C 44.1°F6.7°C 94% 8.0 mph S12.9 kmh S 11.0 mph17.7 kmh 29.84 in1010.5 mb 0.00 in0.0 mm 0.00 in0.0 mm 0.14 in3.6 mm
06:48 PM 45.7°F7.6°C 44.1°F6.7°C 94% 8.0 mph S12.9 kmh S 13.0 mph20.9 kmh 29.84 in1010.5 mb 0.00 in0.0 mm 0.00 in0.0 mm 0.14 in3.6 mm
06:51 PM 45.7°F7.6°C 44.1°F6.7°C 94% 9.0 mph S14.5 kmh S 14.0 mph22.5 kmh 29.85 in1010.8 mb 0.00 in0.0 mm 0.00 in0.0 mm 0.14 in3.6 mm
06:54 PM 45.7°F7.6°C 44.1°F6.7°C 94% 9.0 mph SSE14.5 kmh SSE 14.0 mph22.5 kmh 29.85 in1010.8 mb 0.00 in0.0 mm 0.00 in0.0 mm 0.14 in3.6 mm
06:57 PM 45.7°F7.6°C 44.1°F6.7°C 94% 9.0 mph SSE14.5 kmh SSE 14.0 mph22.5 kmh 29.85 in1010.8 mb 0.00 in0.0 mm 0.00 in0.0 mm 0.14 in3.6 mm
07:00 PM 45.7°F7.6°C 44.1°F6.7°C 94% 9.0 mph SSE14.5 kmh SSE 13.0 mph20.9 kmh 29.85 in1010.8 mb 0.00 in0.0 mm 0.00 in0.0 mm 0.14 in3.6 mm
07:03 PM 45.7°F7.6°C 44.1°F6.7°C 94% 9.0 mph SSE14.5 kmh SSE 14.0 mph22.5 kmh 29.85 in1010.8 mb 0.00 in0.0 mm 0.00 in0.0 mm 0.14 in3.6 mm
07:06 PM 45.9°F7.7°C 44.2°F6.8°C 94% 9.0 mph SSE14.5 kmh SSE 14.0 mph22.5 kmh 29.85 in1010.8 mb 0.00 in0.0 mm 0.00 in0.0 mm 0.14 in3.6 mm
07:09 PM 45.7°F7.6°C 44.1°F6.7°C 94% 9.0 mph SSE14.5 kmh SSE 14.0 mph22.5 kmh 29.85 in1010.8 mb 0.00 in0.0 mm 0.00 in0.0 mm 0.14 in3.6 mm
07:12 PM 45.9°F7.7°C 44.2°F6.8°C 94% 8.0 mph SSE12.9 kmh SSE 12.0 mph19.3 kmh 29.85 in1010.8 mb 0.00 in0.0 mm 0.00 in0.0 mm 0.14 in3.6 mm
07:15 PM 45.9°F7.7°C 44.2°F6.8°C 94% 8.0 mph SSE12.9 kmh SSE 12.0 mph19.3 kmh 29.85 in1010.8 mb 0.00 in0.0 mm 0.00 in0.0 mm 0.14 in3.6 mm
07:18 PM 45.9°F7.7°C 44.2°F6.8°C 94% 9.0 mph SSE14.5 kmh SSE 12.0 mph19.3 kmh 29.86 in1011.2 mb 0.00 in0.0 mm 0.00 in0.0 mm 0.14 in3.6 mm
07:21 PM 45.9°F7.7°C 44.2°F6.8°C 94% 9.0 mph SSE14.5 kmh SSE 15.0 mph24.1 kmh 29.86 in1011.2 mb 0.00 in0.0 mm 0.00 in0.0 mm 0.14 in3.6 mm
07:24 PM 45.9°F7.7°C 44.2°F6.8°C 94% 8.0 mph SSE12.9 kmh SSE 15.0 mph24.1 kmh 29.86 in1011.2 mb 0.00 in0.0 mm 0.00 in0.0 mm 0.14 in3.6 mm
07:27 PM 45.9°F7.7°C 44.2°F6.8°C 94% 8.0 mph SSE12.9 kmh SSE 15.0 mph24.1 kmh 29.86 in1011.2 mb 0.00 in0.0 mm 0.00 in0.0 mm 0.14 in3.6 mm
07:30 PM 45.9°F7.7°C 44.2°F6.8°C 94% 8.0 mph SSE12.9 kmh SSE 15.0 mph24.1 kmh 29.86 in1011.2 mb 0.00 in0.0 mm 0.00 in0.0 mm 0.14 in3.6 mm
07:33 PM 45.7°F7.6°C 44.1°F6.7°C 94% 7.0 mph SSE11.3 kmh SSE 11.0 mph17.7 kmh 29.86 in1011.2 mb 0.00 in0.0 mm 0.00 in0.0 mm 0.14 in3.6 mm
07:36 PM 45.7°F7.6°C 44.1°F6.7°C 94% 7.0 mph SSE11.3 kmh SSE 11.0 mph17.7 kmh 29.86 in1011.2 mb 0.00 in0.0 mm 0.00 in0.0 mm 0.14 in3.6 mm
07:39 PM 45.7°F7.6°C 44.1°F6.7°C 94% 7.0 mph SSE11.3 kmh SSE 11.0 mph17.7 kmh 29.86 in1011.2 mb 0.00 in0.0 mm 0.00 in0.0 mm 0.14 in3.6 mm
07:42 PM 45.7°F7.6°C 44.1°F6.7°C 94% 7.0 mph SSE11.3 kmh SSE 10.0 mph16.1 kmh 29.87 in1011.5 mb 0.00 in0.0 mm 0.00 in0.0 mm 0.14 in3.6 mm
07:45 PM 45.7°F7.6°C 44.1°F6.7°C 94% 6.0 mph SSE9.7 kmh SSE 10.0 mph16.1 kmh 29.87 in1011.5 mb 0.00 in0.0 mm 0.00 in0.0 mm 0.14 in3.6 mm
07:48 PM 45.5°F7.5°C 43.9°F6.6°C 94% 6.0 mph SSE9.7 kmh SSE 9.0 mph14.5 kmh 29.87 in1011.5 mb 0.00 in0.0 mm 0.00 in0.0 mm 0.14 in3.6 mm
07:51 PM 45.5°F7.5°C 43.9°F6.6°C 94% 6.0 mph SSE9.7 kmh SSE 8.0 mph12.9 kmh 29.87 in1011.5 mb 0.00 in0.0 mm 0.00 in0.0 mm 0.14 in3.6 mm
07:54 PM 45.3°F7.4°C 43.7°F6.5°C 94% 6.0 mph SSE9.7 kmh SSE 9.0 mph14.5 kmh 29.87 in1011.5 mb 0.00 in0.0 mm 0.00 in0.0 mm 0.14 in3.6 mm
07:57 PM 45.3°F7.4°C 43.7°F6.5°C 94% 6.0 mph SSE9.7 kmh SSE 9.0 mph14.5 kmh 29.87 in1011.5 mb 0.00 in0.0 mm 0.00 in0.0 mm 0.14 in3.6 mm
08:00 PM 45.3°F7.4°C 43.7°F6.5°C 94% 6.0 mph SSE9.7 kmh SSE 9.0 mph14.5 kmh 29.87 in1011.5 mb 0.00 in0.0 mm 0.00 in0.0 mm 0.14 in3.6 mm
08:03 PM 45.1°F7.3°C 43.5°F6.4°C 94% 6.0 mph SSE9.7 kmh SSE 9.0 mph14.5 kmh 29.87 in1011.5 mb 0.00 in0.0 mm 0.00 in0.0 mm 0.14 in3.6 mm
08:06 PM 45.1°F7.3°C 43.5°F6.4°C 94% 5.0 mph SSE8.0 kmh SSE 9.0 mph14.5 kmh 29.87 in1011.5 mb 0.00 in0.0 mm 0.00 in0.0 mm 0.14 in3.6 mm
08:09 PM 45.1°F7.3°C 43.5°F6.4°C 94% 5.0 mph SSE8.0 kmh SSE 9.0 mph14.5 kmh 29.87 in1011.5 mb 0.00 in0.0 mm 0.00 in0.0 mm 0.14 in3.6 mm
08:12 PM 45.1°F7.3°C 43.5°F6.4°C 94% 5.0 mph S8.0 kmh S 8.0 mph12.9 kmh 29.88 in1011.9 mb 0.00 in0.0 mm 0.00 in0.0 mm 0.14 in3.6 mm
08:15 PM 45.0°F7.2°C 43.3°F6.3°C 94% 5.0 mph S8.0 kmh S 8.0 mph12.9 kmh 29.88 in1011.9 mb 0.00 in0.0 mm 0.00 in0.0 mm 0.14 in3.6 mm
08:18 PM 45.0°F7.2°C 43.3°F6.3°C 94% 5.0 mph S8.0 kmh S 8.0 mph12.9 kmh 29.88 in1011.9 mb 0.00 in0.0 mm 0.00 in0.0 mm 0.14 in3.6 mm
08:21 PM 45.0°F7.2°C 43.3°F6.3°C 94% 5.0 mph S8.0 kmh S 8.0 mph12.9 kmh 29.88 in1011.9 mb 0.00 in0.0 mm 0.00 in0.0 mm 0.14 in3.6 mm
08:24 PM 45.0°F7.2°C 43.3°F6.3°C 94% 5.0 mph S8.0 kmh S 8.0 mph12.9 kmh 29.88 in1011.9 mb 0.00 in0.0 mm 0.00 in0.0 mm 0.14 in3.6 mm
08:27 PM 45.0°F7.2°C 43.3°F6.3°C 94% 5.0 mph S8.0 kmh S 8.0 mph12.9 kmh 29.88 in1011.9 mb 0.00 in0.0 mm 0.00 in0.0 mm 0.14 in3.6 mm
08:30 PM 45.0°F7.2°C 43.3°F6.3°C 94% 5.0 mph S8.0 kmh S 8.0 mph12.9 kmh 29.88 in1011.9 mb 0.00 in0.0 mm 0.00 in0.0 mm 0.14 in3.6 mm
08:33 PM 45.0°F7.2°C 43.7°F6.5°C 95% 5.0 mph S8.0 kmh S 8.0 mph12.9 kmh 29.88 in1011.9 mb 0.00 in0.0 mm 0.00 in0.0 mm 0.14 in3.6 mm
08:36 PM 45.1°F7.3°C 43.7°F6.5°C 95% 5.0 mph S8.0 kmh S 8.0 mph12.9 kmh 29.88 in1011.9 mb 0.00 in0.0 mm 0.00 in0.0 mm 0.14 in3.6 mm
08:39 PM 45.1°F7.3°C 43.7°F6.5°C 95% 5.0 mph S8.0 kmh S 9.0 mph14.5 kmh 29.88 in1011.9 mb 0.00 in0.0 mm 0.00 in0.0 mm 0.14 in3.6 mm
08:42 PM 45.1°F7.3°C 43.7°F6.5°C 95% 5.0 mph S8.0 kmh S 9.0 mph14.5 kmh 29.88 in1011.9 mb 0.00 in0.0 mm 0.00 in0.0 mm 0.14 in3.6 mm
08:45 PM 45.1°F7.3°C 43.7°F6.5°C 95% 5.0 mph S8.0 kmh S 9.0 mph14.5 kmh 29.88 in1011.9 mb 0.00 in0.0 mm 0.00 in0.0 mm 0.14 in3.6 mm
08:48 PM 45.1°F7.3°C 43.5°F6.4°C 94% 5.0 mph S8.0 kmh S 9.0 mph14.5 kmh 29.88 in1011.9 mb 0.00 in0.0 mm 0.00 in0.0 mm 0.14 in3.6 mm
08:51 PM 45.0°F7.2°C 43.3°F6.3°C 94% 5.0 mph S8.0 kmh S 9.0 mph14.5 kmh 29.89 in1012.2 mb 0.00 in0.0 mm 0.00 in0.0 mm 0.14 in3.6 mm
08:54 PM 45.0°F7.2°C 43.3°F6.3°C 94% 5.0 mph S8.0 kmh S 9.0 mph14.5 kmh 29.89 in1012.2 mb 0.00 in0.0 mm 0.00 in0.0 mm 0.14 in3.6 mm
08:57 PM 45.0°F7.2°C 43.3°F6.3°C 94% 5.0 mph S8.0 kmh S 9.0 mph14.5 kmh 29.89 in1012.2 mb 0.00 in0.0 mm 0.00 in0.0 mm 0.14 in3.6 mm
09:00 PM 45.0°F7.2°C 43.3°F6.3°C 94% 5.0 mph S8.0 kmh S 8.0 mph12.9 kmh 29.89 in1012.2 mb 0.00 in0.0 mm 0.00 in0.0 mm 0.14 in3.6 mm
09:03 PM 44.8°F7.1°C 43.2°F6.2°C 94% 5.0 mph S8.0 kmh S 8.0 mph12.9 kmh 29.89 in1012.2 mb 0.00 in0.0 mm 0.00 in0.0 mm 0.14 in3.6 mm
09:06 PM 44.8°F7.1°C 43.2°F6.2°C 94% 5.0 mph S8.0 kmh S 8.0 mph12.9 kmh 29.89 in1012.2 mb 0.00 in0.0 mm 0.00 in0.0 mm 0.14 in3.6 mm
09:09 PM 44.8°F7.1°C 43.2°F6.2°C 94% 5.0 mph S8.0 kmh S 8.0 mph12.9 kmh 29.89 in1012.2 mb 0.00 in0.0 mm 0.00 in0.0 mm 0.14 in3.6 mm
09:12 PM 45.0°F7.2°C 43.7°F6.5°C 95% 6.0 mph S9.7 kmh S 9.0 mph14.5 kmh 29.89 in1012.2 mb 0.00 in0.0 mm 0.00 in0.0 mm 0.14 in3.6 mm
09:15 PM 45.0°F7.2°C 43.7°F6.5°C 95% 6.0 mph S9.7 kmh S 9.0 mph14.5 kmh 29.89 in1012.2 mb 0.00 in0.0 mm 0.00 in0.0 mm 0.14 in3.6 mm
09:18 PM 45.0°F7.2°C 43.7°F6.5°C 95% 6.0 mph S9.7 kmh S 9.0 mph14.5 kmh 29.89 in1012.2 mb 0.00 in0.0 mm 0.00 in0.0 mm 0.14 in3.6 mm
09:21 PM 45.1°F7.3°C 43.7°F6.5°C 95% 6.0 mph S9.7 kmh S 9.0 mph14.5 kmh 29.89 in1012.2 mb 0.00 in0.0 mm 0.00 in0.0 mm 0.14 in3.6 mm
09:24 PM 45.1°F7.3°C 43.7°F6.5°C 95% 6.0 mph S9.7 kmh S 9.0 mph14.5 kmh 29.89 in1012.2 mb 0.00 in0.0 mm 0.00 in0.0 mm 0.14 in3.6 mm
09:27 PM 45.0°F7.2°C 43.7°F6.5°C 95% 6.0 mph S9.7 kmh S 9.0 mph14.5 kmh 29.89 in1012.2 mb 0.00 in0.0 mm 0.00 in0.0 mm 0.14 in3.6 mm
09:30 PM 45.0°F7.2°C 43.7°F6.5°C 95% 6.0 mph S9.7 kmh S 9.0 mph14.5 kmh 29.89 in1012.2 mb 0.00 in0.0 mm 0.00 in0.0 mm 0.14 in3.6 mm
09:33 PM 45.1°F7.3°C 43.7°F6.5°C 95% 6.0 mph S9.7 kmh S 9.0 mph14.5 kmh 29.89 in1012.2 mb 0.00 in0.0 mm 0.00 in0.0 mm 0.14 in3.6 mm
09:36 PM 45.1°F7.3°C 43.7°F6.5°C 95% 6.0 mph S9.7 kmh S 9.0 mph14.5 kmh 29.89 in1012.2 mb 0.00 in0.0 mm 0.00 in0.0 mm 0.14 in3.6 mm
09:39 PM 45.1°F7.3°C 43.7°F6.5°C 95% 6.0 mph S9.7 kmh S 9.0 mph14.5 kmh 29.89 in1012.2 mb 0.00 in0.0 mm 0.00 in0.0 mm 0.14 in3.6 mm
09:42 PM 45.1°F7.3°C 43.7°F6.5°C 95% 6.0 mph S9.7 kmh S 9.0 mph14.5 kmh 29.89 in1012.2 mb 0.00 in0.0 mm 0.00 in0.0 mm 0.14 in3.6 mm
09:45 PM 45.1°F7.3°C 43.7°F6.5°C 95% 6.0 mph S9.7 kmh S 9.0 mph14.5 kmh 29.89 in1012.2 mb 0.00 in0.0 mm 0.00 in0.0 mm 0.14 in3.6 mm
09:48 PM 45.0°F7.2°C 43.7°F6.5°C 95% 5.0 mph S8.0 kmh S 9.0 mph14.5 kmh 29.89 in1012.2 mb 0.00 in0.0 mm 0.00 in0.0 mm 0.14 in3.6 mm
09:51 PM 45.0°F7.2°C 43.5°F6.4°C 95% 5.0 mph S8.0 kmh S 7.0 mph11.3 kmh 29.89 in1012.2 mb 0.00 in0.0 mm 0.00 in0.0 mm 0.14 in3.6 mm
09:54 PM 45.0°F7.2°C 43.5°F6.4°C 95% 5.0 mph S8.0 kmh S 7.0 mph11.3 kmh 29.90 in1012.5 mb 0.00 in0.0 mm 0.00 in0.0 mm 0.14 in3.6 mm
09:57 PM 44.8°F7.1°C 43.2°F6.2°C 94% 5.0 mph S8.0 kmh S 7.0 mph11.3 kmh 29.90 in1012.5 mb 0.00 in0.0 mm 0.00 in0.0 mm 0.14 in3.6 mm
10:00 PM 44.8°F7.1°C 43.3°F6.3°C 95% 5.0 mph S8.0 kmh S 8.0 mph12.9 kmh 29.90 in1012.5 mb 0.00 in0.0 mm 0.00 in0.0 mm 0.14 in3.6 mm
10:03 PM 44.8°F7.1°C 43.5°F6.4°C 95% 6.0 mph S9.7 kmh S 9.0 mph14.5 kmh 29.90 in1012.5 mb 0.00 in0.0 mm 0.00 in0.0 mm 0.14 in3.6 mm
10:06 PM 45.0°F7.2°C 43.5°F6.4°C 95% 6.0 mph S9.7 kmh S 10.0 mph16.1 kmh 29.90 in1012.5 mb 0.00 in0.0 mm 0.00 in0.0 mm 0.14 in3.6 mm
10:09 PM 45.0°F7.2°C 43.7°F6.5°C 95% 6.0 mph S9.7 kmh S 10.0 mph16.1 kmh 29.90 in1012.5 mb 0.00 in0.0 mm 0.00 in0.0 mm 0.14 in3.6 mm
10:12 PM 45.0°F7.2°C 43.7°F6.5°C 95% 6.0 mph S9.7 kmh S 10.0 mph16.1 kmh 29.90 in1012.5 mb 0.00 in0.0 mm 0.00 in0.0 mm 0.14 in3.6 mm
10:15 PM 45.0°F7.2°C 43.7°F6.5°C 95% 5.0 mph S8.0 kmh S 8.0 mph12.9 kmh 29.90 in1012.5 mb 0.00 in0.0 mm 0.00 in0.0 mm 0.14 in3.6 mm
10:18 PM 45.0°F7.2°C 43.7°F6.5°C 95% 4.0 mph S6.4 kmh S 8.0 mph12.9 kmh 29.91 in1012.9 mb 0.00 in0.0 mm 0.00 in0.0 mm 0.14 in3.6 mm
10:21 PM 45.0°F7.2°C 43.5°F6.4°C 95% 4.0 mph S6.4 kmh S 7.0 mph11.3 kmh 29.91 in1012.9 mb 0.00 in0.0 mm 0.00 in0.0 mm 0.14 in3.6 mm
10:24 PM 44.8°F7.1°C 43.5°F6.4°C 95% 4.0 mph S6.4 kmh S 8.0 mph12.9 kmh 29.91 in1012.9 mb 0.00 in0.0 mm 0.00 in0.0 mm 0.14 in3.6 mm
10:27 PM 44.8°F7.1°C 43.5°F6.4°C 95% 4.0 mph S6.4 kmh S 8.0 mph12.9 kmh 29.91 in1012.9 mb 0.00 in0.0 mm 0.00 in0.0 mm 0.14 in3.6 mm
10:30 PM 44.8°F7.1°C 43.3°F6.3°C 95% 5.0 mph S8.0 kmh S 8.0 mph12.9 kmh 29.91 in1012.9 mb 0.00 in0.0 mm 0.00 in0.0 mm 0.14 in3.6 mm
10:33 PM 44.8°F7.1°C 43.3°F6.3°C 95% 5.0 mph S8.0 kmh S 8.0 mph12.9 kmh 29.91 in1012.9 mb 0.00 in0.0 mm 0.00 in0.0 mm 0.14 in3.6 mm
10:36 PM 44.8°F7.1°C 43.3°F6.3°C 95% 5.0 mph S8.0 kmh S 8.0 mph12.9 kmh 29.91 in1012.9 mb 0.00 in0.0 mm 0.00 in0.0 mm 0.14 in3.6 mm
10:39 PM 44.6°F7.0°C 43.3°F6.3°C 95% 5.0 mph S8.0 kmh S 7.0 mph11.3 kmh 29.91 in1012.9 mb 0.00 in0.0 mm 0.00 in0.0 mm 0.14 in3.6 mm
10:42 PM 44.6°F7.0°C 43.3°F6.3°C 95% 5.0 mph S8.0 kmh S 6.0 mph9.7 kmh 29.91 in1012.9 mb 0.00 in0.0 mm 0.00 in0.0 mm 0.14 in3.6 mm
10:45 PM 44.4°F6.9°C 43.2°F6.2°C 95% 5.0 mph S8.0 kmh S 6.0 mph9.7 kmh 29.91 in1012.9 mb 0.00 in0.0 mm 0.00 in0.0 mm 0.14 in3.6 mm
10:48 PM 44.4°F6.9°C 43.0°F6.1°C 95% 4.0 mph S6.4 kmh S 6.0 mph9.7 kmh 29.91 in1012.9 mb 0.00 in0.0 mm 0.00 in0.0 mm 0.14 in3.6 mm
10:51 PM 44.2°F6.8°C 42.8°F6.0°C 95% 4.0 mph SSE6.4 kmh SSE 7.0 mph11.3 kmh 29.91 in1012.9 mb 0.00 in0.0 mm 0.00 in0.0 mm 0.14 in3.6 mm
10:54 PM 44.1°F6.7°C 42.8°F6.0°C 95% 5.0 mph SSE8.0 kmh SSE 7.0 mph11.3 kmh 29.91 in1012.9 mb 0.00 in0.0 mm 0.00 in0.0 mm 0.14 in3.6 mm
10:57 PM 44.1°F6.7°C 42.6°F5.9°C 95% 5.0 mph SE8.0 kmh SE 7.0 mph11.3 kmh 29.91 in1012.9 mb 0.00 in0.0 mm 0.00 in0.0 mm 0.14 in3.6 mm
11:00 PM 44.1°F6.7°C 42.6°F5.9°C 95% 5.0 mph SE8.0 kmh SE 7.0 mph11.3 kmh 29.91 in1012.9 mb 0.00 in0.0 mm 0.00 in0.0 mm 0.14 in3.6 mm
11:03 PM 43.9°F6.6°C 42.6°F5.9°C 95% 5.0 mph SSE8.0 kmh SSE 7.0 mph11.3 kmh 29.91 in1012.9 mb 0.00 in0.0 mm 0.00 in0.0 mm 0.14 in3.6 mm
11:06 PM 43.9°F6.6°C 42.6°F5.9°C 95% 5.0 mph SSE8.0 kmh SSE 7.0 mph11.3 kmh 29.91 in1012.9 mb 0.00 in0.0 mm 0.00 in0.0 mm 0.14 in3.6 mm
11:09 PM 43.9°F6.6°C 42.6°F5.9°C 95% 5.0 mph SSE8.0 kmh SSE 7.0 mph11.3 kmh 29.91 in1012.9 mb 0.00 in0.0 mm 0.00 in0.0 mm 0.14 in3.6 mm
11:12 PM 43.9°F6.6°C 42.6°F5.9°C 95% 5.0 mph SSE8.0 kmh SSE 7.0 mph11.3 kmh 29.91 in1012.9 mb 0.00 in0.0 mm 0.00 in0.0 mm 0.14 in3.6 mm
11:15 PM 43.9°F6.6°C 42.4°F5.8°C 95% 5.0 mph SSE8.0 kmh SSE 7.0 mph11.3 kmh 29.91 in1012.9 mb 0.00 in0.0 mm 0.00 in0.0 mm 0.14 in3.6 mm
11:18 PM 43.9°F6.6°C 42.4°F5.8°C 95% 5.0 mph SSE8.0 kmh SSE 7.0 mph11.3 kmh 29.91 in1012.9 mb 0.00 in0.0 mm 0.00 in0.0 mm 0.14 in3.6 mm
11:21 PM 43.7°F6.5°C 42.4°F5.8°C 95% 5.0 mph SSE8.0 kmh SSE 6.0 mph9.7 kmh 29.91 in1012.9 mb 0.00 in0.0 mm 0.00 in0.0 mm 0.14 in3.6 mm
11:24 PM 43.7°F6.5°C 42.4°F5.8°C 95% 5.0 mph SSE8.0 kmh SSE 6.0 mph9.7 kmh 29.92 in1013.2 mb 0.00 in0.0 mm 0.00 in0.0 mm 0.14 in3.6 mm
11:27 PM 43.7°F6.5°C 42.4°F5.8°C 95% 5.0 mph SSE8.0 kmh SSE 7.0 mph11.3 kmh 29.91 in1012.9 mb 0.00 in0.0 mm 0.00 in0.0 mm 0.14 in3.6 mm
11:30 PM 43.7°F6.5°C 42.4°F5.8°C 95% 5.0 mph SSE8.0 kmh SSE 7.0 mph11.3 kmh 29.92 in1013.2 mb 0.00 in0.0 mm 0.00 in0.0 mm 0.14 in3.6 mm
11:33 PM 43.5°F6.4°C 42.3°F5.7°C 95% 5.0 mph SSE8.0 kmh SSE 7.0 mph11.3 kmh 29.92 in1013.2 mb 0.00 in0.0 mm 0.00 in0.0 mm 0.14 in3.6 mm
11:36 PM 43.5°F6.4°C 42.1°F5.6°C 95% 5.0 mph SSE8.0 kmh SSE 6.0 mph9.7 kmh 29.92 in1013.2 mb 0.00 in0.0 mm 0.00 in0.0 mm 0.14 in3.6 mm
11:39 PM 43.3°F6.3°C 42.1°F5.6°C 95% 5.0 mph SSE8.0 kmh SSE 6.0 mph9.7 kmh 29.92 in1013.2 mb 0.00 in0.0 mm 0.00 in0.0 mm 0.14 in3.6 mm
11:42 PM 43.3°F6.3°C 41.9°F5.5°C 95% 4.0 mph SSE6.4 kmh SSE 6.0 mph9.7 kmh 29.92 in1013.2 mb 0.00 in0.0 mm 0.00 in0.0 mm 0.14 in3.6 mm
11:45 PM 43.2°F6.2°C 41.9°F5.5°C 95% 4.0 mph SSE6.4 kmh SSE 6.0 mph9.7 kmh 29.92 in1013.2 mb 0.00 in0.0 mm 0.00 in0.0 mm 0.14 in3.6 mm
11:48 PM 43.2°F6.2°C 41.7°F5.4°C 95% 4.0 mph SSE6.4 kmh SSE 5.0 mph8.0 kmh 29.92 in1013.2 mb 0.00 in0.0 mm 0.00 in0.0 mm 0.14 in3.6 mm
11:51 PM 43.0°F6.1°C 41.7°F5.4°C 95% 4.0 mph SSE6.4 kmh SSE 6.0 mph9.7 kmh 29.92 in1013.2 mb 0.00 in0.0 mm 0.00 in0.0 mm 0.14 in3.6 mm
11:54 PM 43.0°F6.1°C 41.5°F5.3°C 95% 4.0 mph SSE6.4 kmh SSE 6.0 mph9.7 kmh 29.92 in1013.2 mb 0.00 in0.0 mm 0.00 in0.0 mm 0.14 in3.6 mm
11:57 PM 42.8°F6.0°C 41.5°F5.3°C 95% 4.0 mph SSE6.4 kmh SSE 6.0 mph9.7 kmh 29.93 in1013.5 mb 0.00 in0.0 mm 0.00 in0.0 mm 0.14 in3.6 mm